DLH500 EDDF-SBGL
Flight info
| Callsign | DLH500 |
|---|---|
| Flight time | N/A |
| Altitude | 31000 |
| Route | ANEKI2L ANEKI Y163 HERBI Y164 OLBEN/N0485F330 N869 NINTU DCT PIMAK DCT TITVA DCT GAI/N0487F350 DCT PERDU DCT KONKE Z245 CJN N10 SVL N857 KORNO UN857 TERTO N857 DEREV/N0489F360 N857 GUNET UN857 GAKAS/N0491F380 UN857 MOLSU |
| Aircraft | B789/H-SADFGHIJ1J2J3J4J5LOP1P2RWXYZ/LB1D1 |
Departure
| Time | 2026-04-16 11:54 |
|---|---|
| Airport | Frankfurt Main Airport (EDDF) |
Arrival
| Time | N/A |
|---|---|
| Airport | Rio Galeão – Tom Jobim International Airport (SBGL) |
| Time | Latitude | Longitude | Altitude | Speed | Heading |
|---|---|---|---|---|---|
| 2026-04-16 11:10 | 50.04697 | 8.56162 | 361 ft | 0 kts | 340° |
| 2026-04-16 11:17 | 50.04696 | 8.56162 | 361 ft | 0 kts | 340° |
| 2026-04-16 11:32 | 50.04677 | 8.56173 | 390 ft | 4 kts | 340° |
| 2026-04-16 11:32 | 50.04652 | 8.56188 | 365 ft | 4 kts | 336° |
| 2026-04-16 11:33 | 50.04629 | 8.56207 | 369 ft | 4 kts | 316° |
| 2026-04-16 11:33 | 50.04619 | 8.56232 | 366 ft | 2 kts | 251° |
| 2026-04-16 11:33 | 50.04616 | 8.56222 | 365 ft | 4 kts | 250° |
| 2026-04-16 11:33 | 50.04607 | 8.56183 | 364 ft | 4 kts | 249° |
| 2026-04-16 11:34 | 50.04597 | 8.56143 | 365 ft | 4 kts | 249° |
| 2026-04-16 11:34 | 50.04588 | 8.56104 | 365 ft | 4 kts | 249° |
| 2026-04-16 11:34 | 50.04582 | 8.56081 | 366 ft | 2 kts | 250° |
| 2026-04-16 11:34 | 50.04582 | 8.56080 | 366 ft | 0 kts | 250° |
| 2026-04-16 11:42 | 50.04544 | 8.55978 | 366 ft | 16 kts | 219° |
| 2026-04-16 11:42 | 50.04468 | 8.55929 | 366 ft | 10 kts | 197° |
| 2026-04-16 11:42 | 50.04402 | 8.55911 | 367 ft | 9 kts | 178° |
| 2026-04-16 11:42 | 50.04338 | 8.55934 | 364 ft | 10 kts | 161° |
| 2026-04-16 11:43 | 50.04274 | 8.55948 | 365 ft | 8 kts | 198° |
| 2026-04-16 11:43 | 50.04232 | 8.55892 | 363 ft | 8 kts | 238° |
| 2026-04-16 11:43 | 50.04206 | 8.55802 | 361 ft | 10 kts | 249° |
| 2026-04-16 11:43 | 50.04182 | 8.55699 | 364 ft | 11 kts | 250° |
| 2026-04-16 11:44 | 50.04155 | 8.55586 | 363 ft | 12 kts | 249° |
| 2026-04-16 11:44 | 50.04126 | 8.55468 | 359 ft | 12 kts | 249° |
| 2026-04-16 11:44 | 50.04096 | 8.55350 | 361 ft | 11 kts | 250° |
| 2026-04-16 11:44 | 50.04071 | 8.55239 | 362 ft | 10 kts | 250° |
| 2026-04-16 11:45 | 50.04046 | 8.55133 | 360 ft | 11 kts | 250° |
| 2026-04-16 11:45 | 50.04021 | 8.55024 | 366 ft | 11 kts | 250° |
| 2026-04-16 11:45 | 50.03994 | 8.54908 | 361 ft | 12 kts | 249° |
| 2026-04-16 11:45 | 50.03959 | 8.54767 | 363 ft | 15 kts | 249° |
| 2026-04-16 11:46 | 50.03922 | 8.54614 | 360 ft | 15 kts | 249° |
| 2026-04-16 11:46 | 50.03884 | 8.54456 | 359 ft | 16 kts | 249° |
| 2026-04-16 11:46 | 50.03829 | 8.54304 | 361 ft | 16 kts | 236° |
| 2026-04-16 11:46 | 50.03782 | 8.54146 | 355 ft | 16 kts | 249° |
| 2026-04-16 11:47 | 50.03743 | 8.53986 | 357 ft | 16 kts | 249° |
| 2026-04-16 11:47 | 50.03705 | 8.53826 | 354 ft | 16 kts | 249° |
| 2026-04-16 11:47 | 50.03668 | 8.53672 | 354 ft | 15 kts | 248° |
| 2026-04-16 11:47 | 50.03630 | 8.53525 | 353 ft | 14 kts | 249° |
| 2026-04-16 11:48 | 50.03596 | 8.53383 | 350 ft | 14 kts | 250° |
| 2026-04-16 11:48 | 50.03564 | 8.53246 | 352 ft | 13 kts | 250° |
| 2026-04-16 11:48 | 50.03532 | 8.53113 | 352 ft | 13 kts | 249° |
| 2026-04-16 11:48 | 50.03509 | 8.53018 | 351 ft | 8 kts | 249° |
| 2026-04-16 11:49 | 50.03490 | 8.52942 | 350 ft | 6 kts | 248° |
| 2026-04-16 11:49 | 50.03483 | 8.52914 | 347 ft | 1 kts | 247° |
| 2026-04-16 11:49 | 50.03481 | 8.52910 | 348 ft | 0 kts | 247° |
| 2026-04-16 11:49 | 50.03481 | 8.52907 | 348 ft | 0 kts | 247° |
| 2026-04-16 11:50 | 50.03478 | 8.52898 | 344 ft | 1 kts | 247° |
| 2026-04-16 11:50 | 50.03471 | 8.52872 | 351 ft | 4 kts | 246° |
| 2026-04-16 11:50 | 50.03459 | 8.52828 | 349 ft | 5 kts | 246° |
| 2026-04-16 11:50 | 50.03444 | 8.52772 | 337 ft | 6 kts | 248° |
| 2026-04-16 11:51 | 50.03440 | 8.52755 | 336 ft | 2 kts | 249° |
| 2026-04-16 11:51 | 50.03429 | 8.52714 | 337 ft | 6 kts | 249° |
| 2026-04-16 11:51 | 50.03410 | 8.52636 | 338 ft | 9 kts | 244° |
| 2026-04-16 11:51 | 50.03375 | 8.52600 | 337 ft | 5 kts | 192° |
| 2026-04-16 11:52 | 50.03351 | 8.52597 | 340 ft | 0 kts | 181° |
| 2026-04-16 11:53 | 50.03350 | 8.52597 | 341 ft | 1 kts | 181° |
| 2026-04-16 11:53 | 50.03292 | 8.52596 | 337 ft | 24 kts | 181° |
| 2026-04-16 11:53 | 50.02924 | 8.52598 | 339 ft | 82 kts | 179° |
| 2026-04-16 11:53 | 50.02148 | 8.52605 | 340 ft | 138 kts | 179° |
| 2026-04-16 11:54 | 50.01019 | 8.52617 | 360 ft | 186 kts | 179° |
| 2026-04-16 11:54 | 49.99698 | 8.52690 | 955 ft | 190 kts | 177° |
| 2026-04-16 11:54 | 49.98268 | 8.52732 | 1380 ft | 218 kts | 180° |
| 2026-04-16 11:54 | 49.96744 | 8.52810 | 2277 ft | 219 kts | 179° |
| 2026-04-16 11:55 | 49.95208 | 8.52901 | 3149 ft | 221 kts | 179° |
| 2026-04-16 11:55 | 49.93659 | 8.52994 | 3863 ft | 233 kts | 179° |
| 2026-04-16 11:55 | 49.91911 | 8.53092 | 3965 ft | 275 kts | 179° |
| 2026-04-16 11:55 | 49.89844 | 8.53198 | 4164 ft | 310 kts | 179° |
| 2026-04-16 11:56 | 49.87769 | 8.53310 | 5539 ft | 299 kts | 179° |
| 2026-04-16 11:56 | 49.85644 | 8.53432 | 6213 ft | 308 kts | 179° |
| 2026-04-16 11:56 | 49.83486 | 8.53565 | 7068 ft | 312 kts | 179° |
| 2026-04-16 11:56 | 49.81302 | 8.53704 | 7867 ft | 315 kts | 179° |
| 2026-04-16 11:57 | 49.79123 | 8.53843 | 8651 ft | 319 kts | 179° |
| 2026-04-16 11:57 | 49.76890 | 8.53980 | 9527 ft | 316 kts | 181° |
| 2026-04-16 11:57 | 49.74761 | 8.53845 | 10726 ft | 306 kts | 187° |
| 2026-04-16 11:57 | 49.72543 | 8.53441 | 10742 ft | 334 kts | 189° |
| 2026-04-16 11:58 | 49.70224 | 8.53046 | 11304 ft | 340 kts | 187° |
| 2026-04-16 11:58 | 49.67841 | 8.52759 | 11993 ft | 345 kts | 186° |
| 2026-04-16 11:58 | 49.65424 | 8.52477 | 12680 ft | 349 kts | 187° |
| 2026-04-16 11:58 | 49.62982 | 8.52149 | 13358 ft | 354 kts | 188° |
| 2026-04-16 11:59 | 49.60512 | 8.51808 | 14035 ft | 358 kts | 188° |
| 2026-04-16 11:59 | 49.58047 | 8.51483 | 14645 ft | 362 kts | 188° |
| 2026-04-16 11:59 | 49.55495 | 8.51154 | 15271 ft | 365 kts | 188° |
| 2026-04-16 11:59 | 49.52984 | 8.50825 | 15872 ft | 368 kts | 188° |
| 2026-04-16 12:00 | 49.50412 | 8.50485 | 16478 ft | 372 kts | 188° |
| 2026-04-16 12:00 | 49.47818 | 8.50143 | 17068 ft | 375 kts | 188° |
| 2026-04-16 12:00 | 49.45229 | 8.49805 | 17667 ft | 379 kts | 188° |
| 2026-04-16 12:00 | 49.42583 | 8.49459 | 18245 ft | 382 kts | 188° |
| 2026-04-16 12:01 | 49.39919 | 8.49111 | 18777 ft | 386 kts | 188° |
| 2026-04-16 12:01 | 49.37230 | 8.48759 | 19275 ft | 389 kts | 188° |
| 2026-04-16 12:01 | 49.34518 | 8.48406 | 19764 ft | 392 kts | 188° |
| 2026-04-16 12:02 | 49.29052 | 8.47695 | 20714 ft | 399 kts | 188° |
| 2026-04-16 12:02 | 49.26281 | 8.47336 | 21179 ft | 402 kts | 189° |
| 2026-04-16 12:02 | 49.23484 | 8.46971 | 21635 ft | 405 kts | 189° |
| 2026-04-16 12:02 | 49.20693 | 8.46606 | 22090 ft | 408 kts | 189° |
| 2026-04-16 12:03 | 49.17851 | 8.46237 | 22531 ft | 411 kts | 189° |
| 2026-04-16 12:03 | 49.14992 | 8.45867 | 22953 ft | 414 kts | 189° |
| 2026-04-16 12:03 | 49.12100 | 8.45492 | 23374 ft | 417 kts | 189° |
| 2026-04-16 12:03 | 49.09223 | 8.45119 | 23773 ft | 421 kts | 189° |
| 2026-04-16 12:04 | 49.06291 | 8.44691 | 24117 ft | 421 kts | 194° |
| 2026-04-16 12:04 | 49.03437 | 8.43678 | 24419 ft | 421 kts | 197° |
| 2026-04-16 12:04 | 49.00590 | 8.42711 | 24775 ft | 423 kts | 197° |
| 2026-04-16 12:04 | 48.97696 | 8.41750 | 25118 ft | 425 kts | 197° |
| 2026-04-16 12:05 | 48.94797 | 8.40735 | 25455 ft | 427 kts | 198° |
| 2026-04-16 12:05 | 48.91926 | 8.39714 | 25784 ft | 429 kts | 197° |
| 2026-04-16 12:05 | 48.89006 | 8.38700 | 26129 ft | 431 kts | 197° |
| 2026-04-16 12:05 | 48.86068 | 8.37693 | 26446 ft | 433 kts | 197° |
| 2026-04-16 12:06 | 48.83115 | 8.36673 | 26769 ft | 435 kts | 197° |
| 2026-04-16 12:06 | 48.80155 | 8.35644 | 27075 ft | 437 kts | 197° |
| 2026-04-16 12:06 | 48.77222 | 8.34623 | 27395 ft | 438 kts | 198° |
| 2026-04-16 12:06 | 48.74243 | 8.33530 | 27651 ft | 440 kts | 198° |
| 2026-04-16 12:07 | 48.71253 | 8.32406 | 27927 ft | 443 kts | 198° |
| 2026-04-16 12:07 | 48.68250 | 8.31308 | 28225 ft | 444 kts | 198° |
| 2026-04-16 12:07 | 48.65271 | 8.30239 | 28518 ft | 446 kts | 198° |
| 2026-04-16 12:07 | 48.62248 | 8.29143 | 28773 ft | 448 kts | 198° |
| 2026-04-16 12:08 | 48.59202 | 8.28028 | 29086 ft | 449 kts | 198° |
| 2026-04-16 12:08 | 48.56154 | 8.26918 | 29348 ft | 451 kts | 198° |
| 2026-04-16 12:08 | 48.53088 | 8.25810 | 29611 ft | 453 kts | 197° |
| 2026-04-16 12:08 | 48.50015 | 8.24700 | 29874 ft | 455 kts | 198° |
| 2026-04-16 12:09 | 48.46956 | 8.23591 | 30125 ft | 457 kts | 198° |
| 2026-04-16 12:09 | 48.43869 | 8.22456 | 30374 ft | 458 kts | 198° |
| 2026-04-16 12:09 | 48.40755 | 8.21312 | 30566 ft | 460 kts | 198° |
| 2026-04-16 12:09 | 48.37636 | 8.20177 | 30795 ft | 462 kts | 198° |
| 2026-04-16 12:10 | 48.34506 | 8.19041 | 30960 ft | 464 kts | 198° |
| 2026-04-16 12:10 | 48.31357 | 8.17894 | 31015 ft | 468 kts | 198° |
| 2026-04-16 12:10 | 48.25020 | 8.15575 | 31014 ft | 465 kts | 201° |
| 2026-04-16 12:11 | 48.19036 | 8.12254 | 31008 ft | 462 kts | 204° |
| 2026-04-16 12:11 | 48.12994 | 8.08864 | 31027 ft | 462 kts | 205° |
| 2026-04-16 12:12 | 48.07010 | 8.05464 | 31035 ft | 462 kts | 205° |
| 2026-04-16 12:12 | 48.00982 | 8.02078 | 31031 ft | 462 kts | 205° |
| 2026-04-16 12:13 | 47.94991 | 7.98705 | 31027 ft | 462 kts | 205° |
| 2026-04-16 12:13 | 47.88959 | 7.95326 | 31029 ft | 462 kts | 204° |
| 2026-04-16 12:14 | 47.82957 | 7.91966 | 31021 ft | 463 kts | 204° |
| 2026-04-16 12:14 | 47.76913 | 7.88595 | 31021 ft | 463 kts | 204° |
| 2026-04-16 12:15 | 47.70900 | 7.85248 | 31011 ft | 464 kts | 204° |
| 2026-04-16 12:15 | 47.64842 | 7.81885 | 31009 ft | 464 kts | 204° |
| 2026-04-16 12:16 | 47.58802 | 7.78540 | 31001 ft | 463 kts | 204° |
| 2026-04-16 12:16 | 47.52750 | 7.75197 | 31002 ft | 464 kts | 204° |
| 2026-04-16 12:17 | 47.46721 | 7.71874 | 31002 ft | 464 kts | 204° |
| 2026-04-16 12:17 | 47.40640 | 7.68531 | 31004 ft | 465 kts | 204° |
| 2026-04-16 12:18 | 47.34570 | 7.65198 | 31003 ft | 464 kts | 205° |
| 2026-04-16 12:18 | 47.31737 | 7.63082 | 31036 ft | 458 kts | 217° |
| 2026-04-16 12:18 | 47.29217 | 7.60203 | 31033 ft | 455 kts | 228° |
| 2026-04-16 12:19 | 47.25177 | 7.53157 | 31013 ft | 453 kts | 235° |
| 2026-04-16 12:19 | 47.23219 | 7.49511 | 31156 ft | 452 kts | 235° |
| 2026-04-16 12:19 | 47.21258 | 7.45854 | 31367 ft | 453 kts | 235° |
| 2026-04-16 12:20 | 47.19319 | 7.42263 | 31568 ft | 455 kts | 235° |
| 2026-04-16 12:20 | 47.17336 | 7.38603 | 31763 ft | 456 kts | 235° |
| 2026-04-16 12:20 | 47.15356 | 7.34947 | 31954 ft | 458 kts | 235° |
| 2026-04-16 12:20 | 47.13373 | 7.31278 | 32141 ft | 459 kts | 235° |
| 2026-04-16 12:21 | 47.12047 | 7.28830 | 32256 ft | 460 kts | 235° |
| 2026-04-16 12:21 | 47.09392 | 7.23940 | 32508 ft | 463 kts | 235° |
| 2026-04-16 12:21 | 47.07376 | 7.20234 | 32694 ft | 464 kts | 235° |
| 2026-04-16 12:21 | 47.05356 | 7.16522 | 32884 ft | 465 kts | 235° |
| 2026-04-16 12:22 | 47.04013 | 7.14057 | 33000 ft | 466 kts | 235° |
| 2026-04-16 12:22 | 47.01308 | 7.09101 | 33029 ft | 471 kts | 235° |
| 2026-04-16 12:22 | 46.97892 | 7.02862 | 33024 ft | 468 kts | 235° |
| 2026-04-16 12:23 | 46.93831 | 6.95452 | 33030 ft | 467 kts | 235° |
| 2026-04-16 12:23 | 46.89739 | 6.88012 | 33028 ft | 468 kts | 235° |
| 2026-04-16 12:24 | 46.85651 | 6.80599 | 33026 ft | 468 kts | 235° |
| 2026-04-16 12:24 | 46.81564 | 6.73206 | 33024 ft | 468 kts | 235° |
| 2026-04-16 12:25 | 46.77486 | 6.65851 | 33023 ft | 469 kts | 235° |
| 2026-04-16 12:25 | 46.73365 | 6.58437 | 33017 ft | 470 kts | 235° |
| 2026-04-16 12:26 | 46.69072 | 6.51294 | 33019 ft | 471 kts | 233° |
| 2026-04-16 12:26 | 46.64757 | 6.44130 | 33013 ft | 472 kts | 232° |
| 2026-04-16 12:27 | 46.60372 | 6.36958 | 33009 ft | 472 kts | 232° |
| 2026-04-16 12:27 | 46.56040 | 6.29842 | 33007 ft | 471 kts | 232° |
| 2026-04-16 12:28 | 46.51674 | 6.22714 | 33001 ft | 471 kts | 232° |
| 2026-04-16 12:28 | 46.47323 | 6.15617 | 33003 ft | 472 kts | 232° |
| 2026-04-16 12:29 | 46.42965 | 6.08534 | 33014 ft | 473 kts | 232° |
| 2026-04-16 12:29 | 46.38572 | 6.01408 | 33003 ft | 472 kts | 232° |
| 2026-04-16 12:30 | 46.34207 | 5.94349 | 33003 ft | 473 kts | 232° |
| 2026-04-16 12:30 | 46.29879 | 5.87171 | 33029 ft | 469 kts | 240° |
| 2026-04-16 12:31 | 46.26207 | 5.79414 | 33016 ft | 470 kts | 239° |
| 2026-04-16 12:31 | 46.22491 | 5.71597 | 33015 ft | 470 kts | 239° |
| 2026-04-16 12:32 | 46.18807 | 5.63848 | 33010 ft | 470 kts | 239° |
| 2026-04-16 12:32 | 46.15091 | 5.56071 | 33014 ft | 471 kts | 239° |
| 2026-04-16 12:33 | 46.11369 | 5.48288 | 33010 ft | 471 kts | 239° |
| 2026-04-16 12:33 | 46.07660 | 5.40560 | 33007 ft | 471 kts | 239° |
| 2026-04-16 12:34 | 46.03925 | 5.32794 | 33005 ft | 471 kts | 239° |
| 2026-04-16 12:34 | 46.00201 | 5.25075 | 33001 ft | 471 kts | 239° |
| 2026-04-16 12:35 | 45.96449 | 5.17319 | 33001 ft | 471 kts | 239° |
| 2026-04-16 12:35 | 45.92712 | 5.09615 | 33001 ft | 472 kts | 239° |
| 2026-04-16 12:36 | 45.88946 | 5.01872 | 32999 ft | 472 kts | 238° |
| 2026-04-16 12:36 | 45.85172 | 4.94134 | 33001 ft | 472 kts | 238° |
| 2026-04-16 12:37 | 45.81416 | 4.86455 | 33002 ft | 472 kts | 238° |
| 2026-04-16 12:37 | 45.77637 | 4.78748 | 33002 ft | 472 kts | 238° |
| 2026-04-16 12:38 | 45.73840 | 4.71028 | 32998 ft | 472 kts | 238° |
| 2026-04-16 12:38 | 45.70063 | 4.63367 | 33001 ft | 472 kts | 238° |
| 2026-04-16 12:39 | 45.66288 | 4.55732 | 33003 ft | 473 kts | 238° |
| 2026-04-16 12:39 | 45.62472 | 4.48034 | 33001 ft | 473 kts | 238° |
| 2026-04-16 12:40 | 45.58675 | 4.40397 | 32999 ft | 473 kts | 238° |
| 2026-04-16 12:40 | 45.54851 | 4.32725 | 33004 ft | 473 kts | 238° |
| 2026-04-16 12:41 | 45.51044 | 4.25109 | 32997 ft | 473 kts | 238° |
| 2026-04-16 12:41 | 45.47214 | 4.17465 | 32999 ft | 473 kts | 238° |
| 2026-04-16 12:42 | 45.43412 | 4.09899 | 32999 ft | 471 kts | 238° |
| 2026-04-16 12:42 | 45.39590 | 4.02311 | 33009 ft | 472 kts | 238° |
| 2026-04-16 12:43 | 45.35648 | 3.94795 | 33015 ft | 475 kts | 230° |
| 2026-04-16 12:43 | 45.31213 | 3.87856 | 33024 ft | 476 kts | 231° |
| 2026-04-16 12:44 | 45.26767 | 3.80865 | 33029 ft | 476 kts | 231° |
| 2026-04-16 12:44 | 45.22318 | 3.73920 | 33033 ft | 477 kts | 231° |
| 2026-04-16 12:45 | 45.17879 | 3.66986 | 33035 ft | 477 kts | 231° |
| 2026-04-16 12:45 | 45.13399 | 3.60018 | 33033 ft | 477 kts | 231° |
| 2026-04-16 12:46 | 45.08943 | 3.53099 | 33022 ft | 475 kts | 231° |
| 2026-04-16 12:46 | 45.04469 | 3.46172 | 33007 ft | 475 kts | 231° |
| 2026-04-16 12:47 | 45.00012 | 3.39287 | 33003 ft | 477 kts | 231° |
| 2026-04-16 12:47 | 44.95543 | 3.32401 | 32996 ft | 476 kts | 231° |
| 2026-04-16 12:48 | 44.91050 | 3.25495 | 32988 ft | 476 kts | 230° |
| 2026-04-16 12:48 | 44.86591 | 3.18658 | 32992 ft | 476 kts | 230° |
| 2026-04-16 12:49 | 44.82093 | 3.11779 | 32988 ft | 476 kts | 230° |
| 2026-04-16 12:49 | 44.77621 | 3.04957 | 32988 ft | 475 kts | 230° |
| 2026-04-16 12:50 | 44.73117 | 2.98102 | 32985 ft | 476 kts | 230° |
| 2026-04-16 12:50 | 44.68632 | 2.91293 | 32979 ft | 475 kts | 230° |
| 2026-04-16 12:51 | 44.64121 | 2.84460 | 32986 ft | 476 kts | 230° |
| 2026-04-16 12:51 | 44.59634 | 2.77683 | 32989 ft | 476 kts | 230° |
| 2026-04-16 12:52 | 44.55116 | 2.70873 | 32993 ft | 475 kts | 230° |
| 2026-04-16 12:52 | 44.50620 | 2.64115 | 32996 ft | 475 kts | 230° |
| 2026-04-16 12:53 | 44.46092 | 2.57324 | 33009 ft | 476 kts | 230° |
| 2026-04-16 12:53 | 44.41590 | 2.50589 | 33005 ft | 476 kts | 230° |
| 2026-04-16 12:54 | 44.37080 | 2.43858 | 33001 ft | 476 kts | 230° |
| 2026-04-16 12:54 | 44.32539 | 2.37097 | 32999 ft | 475 kts | 230° |
| 2026-04-16 12:55 | 44.28018 | 2.30382 | 32996 ft | 475 kts | 229° |
| 2026-04-16 12:55 | 44.23506 | 2.23697 | 32995 ft | 475 kts | 229° |
| 2026-04-16 12:56 | 44.18969 | 2.16991 | 32992 ft | 474 kts | 229° |
| 2026-04-16 12:56 | 44.14428 | 2.10294 | 32985 ft | 474 kts | 229° |
| 2026-04-16 12:57 | 44.09907 | 2.03643 | 32985 ft | 474 kts | 229° |
| 2026-04-16 12:57 | 44.05362 | 1.96974 | 32988 ft | 474 kts | 229° |
| 2026-04-16 12:58 | 44.00839 | 1.90352 | 32984 ft | 474 kts | 229° |
| 2026-04-16 12:58 | 43.96306 | 1.83731 | 32988 ft | 474 kts | 229° |
| 2026-04-16 12:59 | 43.91698 | 1.77155 | 32983 ft | 474 kts | 227° |
| 2026-04-16 13:00 | 43.84752 | 1.67416 | 32985 ft | 474 kts | 228° |
| 2026-04-16 13:00 | 43.80107 | 1.60915 | 32990 ft | 474 kts | 227° |
| 2026-04-16 13:01 | 43.75489 | 1.54455 | 32995 ft | 474 kts | 228° |
| 2026-04-16 13:01 | 43.70844 | 1.47972 | 32995 ft | 474 kts | 228° |
| 2026-04-16 13:02 | 43.66188 | 1.41492 | 33018 ft | 474 kts | 227° |
| 2026-04-16 13:02 | 43.61556 | 1.35058 | 33017 ft | 474 kts | 227° |
| 2026-04-16 13:03 | 43.56897 | 1.28605 | 33009 ft | 474 kts | 227° |
| 2026-04-16 13:03 | 43.52261 | 1.22195 | 33003 ft | 475 kts | 227° |
| 2026-04-16 13:04 | 43.47572 | 1.15729 | 32995 ft | 475 kts | 227° |
| 2026-04-16 13:04 | 43.42926 | 1.09336 | 32996 ft | 475 kts | 227° |
| 2026-04-16 13:05 | 43.38243 | 1.02907 | 32986 ft | 475 kts | 227° |
| 2026-04-16 13:05 | 43.33586 | 0.96528 | 32977 ft | 475 kts | 227° |
| 2026-04-16 13:06 | 43.28916 | 0.90147 | 32978 ft | 475 kts | 227° |
| 2026-04-16 13:06 | 43.24222 | 0.83747 | 32967 ft | 474 kts | 227° |
| 2026-04-16 13:07 | 43.19531 | 0.77367 | 32963 ft | 474 kts | 227° |
| 2026-04-16 13:07 | 43.14838 | 0.70998 | 32967 ft | 474 kts | 227° |
| 2026-04-16 13:08 | 43.10171 | 0.64678 | 32969 ft | 474 kts | 227° |
| 2026-04-16 13:08 | 43.05494 | 0.58361 | 32966 ft | 474 kts | 227° |
| 2026-04-16 13:09 | 43.00792 | 0.52022 | 32966 ft | 473 kts | 227° |
| 2026-04-16 13:09 | 42.96122 | 0.45742 | 32972 ft | 473 kts | 227° |
| 2026-04-16 13:10 | 42.92207 | 0.40487 | 32966 ft | 473 kts | 227° |
| 2026-04-16 13:10 | 42.86738 | 0.33165 | 32957 ft | 473 kts | 226° |
| 2026-04-16 13:11 | 42.82830 | 0.27943 | 32956 ft | 472 kts | 226° |
| 2026-04-16 13:11 | 42.78117 | 0.21661 | 32964 ft | 472 kts | 226° |
| 2026-04-16 13:12 | 42.73440 | 0.15441 | 32965 ft | 472 kts | 225° |
| 2026-04-16 13:12 | 42.68473 | 0.09578 | 32965 ft | 473 kts | 223° |
| 2026-04-16 13:13 | 42.63499 | 0.03712 | 32957 ft | 473 kts | 223° |
| 2026-04-16 13:13 | 42.58525 | -0.02093 | 32953 ft | 472 kts | 223° |
| 2026-04-16 13:14 | 42.53537 | -0.07930 | 32950 ft | 472 kts | 223° |
| 2026-04-16 13:14 | 42.48574 | -0.13710 | 32954 ft | 472 kts | 223° |
| 2026-04-16 13:14 | 42.46073 | -0.16622 | 33204 ft | 472 kts | 223° |
| 2026-04-16 13:15 | 42.43568 | -0.19536 | 33366 ft | 474 kts | 223° |
| 2026-04-16 13:15 | 42.41089 | -0.22414 | 33580 ft | 475 kts | 223° |
| 2026-04-16 13:15 | 42.38576 | -0.25329 | 33759 ft | 476 kts | 223° |
| 2026-04-16 13:15 | 42.36054 | -0.28250 | 33934 ft | 477 kts | 223° |
| 2026-04-16 13:16 | 42.33524 | -0.31180 | 34103 ft | 478 kts | 223° |
| 2026-04-16 13:16 | 42.31018 | -0.34078 | 34274 ft | 479 kts | 222° |
| 2026-04-16 13:16 | 42.28482 | -0.37006 | 34415 ft | 480 kts | 222° |
| 2026-04-16 13:16 | 42.25941 | -0.39937 | 34587 ft | 480 kts | 222° |
| 2026-04-16 13:17 | 42.23398 | -0.42867 | 34784 ft | 480 kts | 222° |
| 2026-04-16 13:17 | 42.20852 | -0.45799 | 34969 ft | 480 kts | 222° |
| 2026-04-16 13:17 | 42.18296 | -0.48738 | 34971 ft | 483 kts | 222° |
| 2026-04-16 13:18 | 42.13216 | -0.54569 | 34960 ft | 479 kts | 222° |
| 2026-04-16 13:18 | 42.08133 | -0.60392 | 34959 ft | 478 kts | 222° |
| 2026-04-16 13:19 | 42.03082 | -0.66164 | 34957 ft | 478 kts | 222° |
| 2026-04-16 13:19 | 41.98009 | -0.71951 | 34954 ft | 477 kts | 222° |
| 2026-04-16 13:20 | 41.92933 | -0.77728 | 34940 ft | 478 kts | 222° |
| 2026-04-16 13:20 | 41.87847 | -0.83503 | 34935 ft | 478 kts | 222° |
| 2026-04-16 13:21 | 41.82763 | -0.89263 | 34931 ft | 478 kts | 222° |
| 2026-04-16 13:21 | 41.77706 | -0.94981 | 34922 ft | 477 kts | 222° |
| 2026-04-16 13:22 | 41.72614 | -1.00726 | 34918 ft | 477 kts | 222° |
| 2026-04-16 13:22 | 41.67556 | -1.06421 | 34920 ft | 477 kts | 222° |
| 2026-04-16 13:23 | 41.62459 | -1.12148 | 34918 ft | 477 kts | 222° |
| 2026-04-16 13:23 | 41.57398 | -1.17821 | 34918 ft | 477 kts | 222° |
| 2026-04-16 13:24 | 41.52298 | -1.23526 | 34924 ft | 477 kts | 221° |
| 2026-04-16 13:24 | 41.47216 | -1.29200 | 34933 ft | 477 kts | 221° |
| 2026-04-16 13:25 | 41.42135 | -1.34859 | 34939 ft | 478 kts | 221° |
| 2026-04-16 13:25 | 41.37030 | -1.40534 | 34939 ft | 477 kts | 221° |
| 2026-04-16 13:26 | 41.31919 | -1.46204 | 34939 ft | 477 kts | 222° |
| 2026-04-16 13:26 | 41.26797 | -1.51873 | 34941 ft | 477 kts | 222° |
| 2026-04-16 13:27 | 41.21713 | -1.57489 | 34941 ft | 478 kts | 222° |
| 2026-04-16 13:27 | 41.16619 | -1.63103 | 34943 ft | 478 kts | 222° |
| 2026-04-16 13:28 | 41.11485 | -1.68752 | 34946 ft | 478 kts | 222° |
| 2026-04-16 13:28 | 41.06354 | -1.74384 | 34945 ft | 478 kts | 222° |
| 2026-04-16 13:29 | 41.01329 | -1.80095 | 34962 ft | 477 kts | 224° |
| 2026-04-16 13:29 | 40.96336 | -1.85907 | 34959 ft | 478 kts | 224° |
| 2026-04-16 13:30 | 40.91402 | -1.91723 | 34963 ft | 477 kts | 224° |
| 2026-04-16 13:30 | 40.86413 | -1.97556 | 34965 ft | 478 kts | 224° |
| 2026-04-16 13:31 | 40.81457 | -2.03350 | 34972 ft | 478 kts | 224° |
| 2026-04-16 13:31 | 40.76469 | -2.09166 | 34972 ft | 478 kts | 224° |
| 2026-04-16 13:32 | 40.71504 | -2.14943 | 34964 ft | 477 kts | 224° |
| 2026-04-16 13:32 | 40.66497 | -2.20744 | 34964 ft | 477 kts | 224° |
| 2026-04-16 13:33 | 40.61521 | -2.26499 | 34964 ft | 477 kts | 224° |
| 2026-04-16 13:33 | 40.56507 | -2.32285 | 34958 ft | 478 kts | 224° |
| 2026-04-16 13:34 | 40.51523 | -2.38026 | 34961 ft | 478 kts | 224° |
| 2026-04-16 13:34 | 40.46508 | -2.43791 | 34961 ft | 477 kts | 224° |
| 2026-04-16 13:35 | 40.41533 | -2.49497 | 34963 ft | 478 kts | 224° |
| 2026-04-16 13:35 | 40.36621 | -2.55387 | 34985 ft | 474 kts | 233° |
| 2026-04-16 13:36 | 40.32404 | -2.62005 | 34971 ft | 475 kts | 233° |
| 2026-04-16 13:36 | 40.28169 | -2.68684 | 34975 ft | 476 kts | 233° |
| 2026-04-16 13:37 | 40.23944 | -2.75305 | 34976 ft | 476 kts | 233° |
| 2026-04-16 13:37 | 40.19682 | -2.81985 | 34977 ft | 476 kts | 233° |
| 2026-04-16 13:38 | 40.15438 | -2.88616 | 34969 ft | 477 kts | 233° |
| 2026-04-16 13:38 | 40.11187 | -2.95246 | 34970 ft | 477 kts | 233° |
| 2026-04-16 13:39 | 40.06908 | -3.01904 | 34968 ft | 477 kts | 233° |
| 2026-04-16 13:39 | 40.02651 | -3.08514 | 34963 ft | 477 kts | 233° |
| 2026-04-16 13:40 | 39.98365 | -3.15155 | 34963 ft | 477 kts | 233° |
| 2026-04-16 13:40 | 39.94100 | -3.21749 | 34973 ft | 477 kts | 233° |
| 2026-04-16 13:41 | 39.89803 | -3.28379 | 34970 ft | 478 kts | 233° |
| 2026-04-16 13:41 | 39.85520 | -3.34972 | 34964 ft | 477 kts | 233° |
| 2026-04-16 13:42 | 39.81242 | -3.41545 | 34963 ft | 477 kts | 233° |
| 2026-04-16 13:42 | 39.76855 | -3.48018 | 34966 ft | 476 kts | 228° |
| 2026-04-16 13:43 | 39.72179 | -3.54175 | 34965 ft | 478 kts | 229° |
| 2026-04-16 13:43 | 39.67534 | -3.60291 | 34960 ft | 478 kts | 228° |
| 2026-04-16 13:44 | 39.62844 | -3.66444 | 34957 ft | 478 kts | 228° |
| 2026-04-16 13:44 | 39.58160 | -3.72585 | 34954 ft | 478 kts | 228° |
| 2026-04-16 13:45 | 39.53497 | -3.78683 | 34955 ft | 478 kts | 228° |
| 2026-04-16 13:45 | 39.48810 | -3.84804 | 34950 ft | 478 kts | 228° |
| 2026-04-16 13:46 | 39.44148 | -3.90877 | 34945 ft | 477 kts | 228° |
| 2026-04-16 13:46 | 39.39459 | -3.96977 | 34943 ft | 477 kts | 228° |
| 2026-04-16 13:47 | 39.34760 | -4.03074 | 34947 ft | 477 kts | 228° |
| 2026-04-16 13:47 | 39.30091 | -4.09121 | 34954 ft | 478 kts | 228° |
| 2026-04-16 13:48 | 39.25388 | -4.15200 | 34954 ft | 478 kts | 228° |
| 2026-04-16 13:48 | 39.20686 | -4.21265 | 34950 ft | 477 kts | 228° |
| 2026-04-16 13:49 | 39.16011 | -4.27284 | 34950 ft | 477 kts | 228° |
| 2026-04-16 13:49 | 39.11290 | -4.33350 | 34948 ft | 478 kts | 228° |
| 2026-04-16 13:50 | 39.06598 | -4.39366 | 34942 ft | 478 kts | 227° |
| 2026-04-16 13:50 | 39.01884 | -4.45398 | 34944 ft | 477 kts | 227° |
| 2026-04-16 13:51 | 38.97168 | -4.51422 | 34945 ft | 477 kts | 227° |
| 2026-04-16 13:51 | 38.92462 | -4.57419 | 34939 ft | 477 kts | 227° |
| 2026-04-16 13:52 | 38.87770 | -4.63384 | 34938 ft | 477 kts | 227° |
| 2026-04-16 13:52 | 38.83029 | -4.69402 | 34937 ft | 477 kts | 227° |
| 2026-04-16 13:53 | 38.78332 | -4.75350 | 34935 ft | 477 kts | 227° |
| 2026-04-16 13:53 | 38.73603 | -4.81327 | 34931 ft | 476 kts | 227° |
| 2026-04-16 13:54 | 38.68872 | -4.87296 | 34927 ft | 476 kts | 227° |
| 2026-04-16 13:54 | 38.64175 | -4.93209 | 34932 ft | 476 kts | 227° |
| 2026-04-16 13:55 | 38.59454 | -4.99141 | 34929 ft | 476 kts | 227° |
| 2026-04-16 13:55 | 38.54715 | -5.05085 | 34932 ft | 476 kts | 227° |
| 2026-04-16 13:56 | 38.49695 | -5.10544 | 34949 ft | 480 kts | 212° |
| 2026-04-16 13:56 | 38.43697 | -5.14410 | 34938 ft | 483 kts | 208° |
| 2026-04-16 13:57 | 38.37673 | -5.18139 | 34939 ft | 483 kts | 208° |
| 2026-04-16 13:57 | 38.31628 | -5.21895 | 34935 ft | 483 kts | 208° |
| 2026-04-16 13:58 | 38.22578 | -5.27492 | 34935 ft | 483 kts | 208° |
| 2026-04-16 13:58 | 38.16560 | -5.31209 | 34936 ft | 482 kts | 208° |
| 2026-04-16 13:59 | 38.11530 | -5.34308 | 34938 ft | 482 kts | 208° |
| 2026-04-16 13:59 | 38.05492 | -5.38024 | 34939 ft | 482 kts | 208° |
| 2026-04-16 14:00 | 37.99442 | -5.41739 | 34928 ft | 482 kts | 208° |
| 2026-04-16 14:00 | 37.93427 | -5.45427 | 34927 ft | 481 kts | 208° |
| 2026-04-16 14:01 | 37.87372 | -5.49132 | 34922 ft | 481 kts | 207° |
| 2026-04-16 14:01 | 37.81364 | -5.52802 | 34922 ft | 481 kts | 207° |
| 2026-04-16 14:02 | 37.75318 | -5.56488 | 34922 ft | 481 kts | 207° |
| 2026-04-16 14:02 | 37.69303 | -5.60148 | 34908 ft | 481 kts | 207° |
| 2026-04-16 14:03 | 37.63252 | -5.63823 | 34903 ft | 481 kts | 207° |
| 2026-04-16 14:03 | 37.57241 | -5.67468 | 34910 ft | 481 kts | 207° |
| 2026-04-16 14:04 | 37.51184 | -5.71135 | 34906 ft | 481 kts | 207° |
| 2026-04-16 14:04 | 37.45167 | -5.74770 | 34908 ft | 482 kts | 207° |
| 2026-04-16 14:05 | 37.42269 | -5.76860 | 34928 ft | 478 kts | 218° |
| 2026-04-16 14:05 | 37.39676 | -5.79505 | 34911 ft | 479 kts | 221° |
| 2026-04-16 14:05 | 37.34587 | -5.84938 | 34909 ft | 479 kts | 221° |
| 2026-04-16 14:06 | 37.29526 | -5.90314 | 34908 ft | 479 kts | 221° |
| 2026-04-16 14:06 | 37.24421 | -5.95734 | 34909 ft | 479 kts | 221° |
| 2026-04-16 14:07 | 37.19348 | -6.01108 | 34906 ft | 479 kts | 221° |
| 2026-04-16 14:07 | 37.14245 | -6.06504 | 34906 ft | 479 kts | 221° |
| 2026-04-16 14:08 | 37.09168 | -6.11864 | 34911 ft | 479 kts | 221° |
| 2026-04-16 14:08 | 37.04053 | -6.17253 | 34905 ft | 479 kts | 221° |
| 2026-04-16 14:09 | 36.98959 | -6.22611 | 34901 ft | 480 kts | 221° |
| 2026-04-16 14:09 | 36.93866 | -6.27957 | 34897 ft | 479 kts | 220° |
| 2026-04-16 14:10 | 36.88749 | -6.33320 | 34905 ft | 479 kts | 220° |
| 2026-04-16 14:10 | 36.83667 | -6.38635 | 34906 ft | 479 kts | 220° |
| 2026-04-16 14:11 | 36.78530 | -6.43999 | 34908 ft | 479 kts | 220° |
| 2026-04-16 14:11 | 36.73439 | -6.49306 | 34905 ft | 478 kts | 220° |
| 2026-04-16 14:12 | 36.68347 | -6.54604 | 34905 ft | 478 kts | 220° |
| 2026-04-16 14:12 | 36.63216 | -6.59933 | 34909 ft | 479 kts | 220° |
| 2026-04-16 14:13 | 36.58108 | -6.65228 | 34909 ft | 479 kts | 220° |
| 2026-04-16 14:13 | 36.53004 | -6.70510 | 34912 ft | 479 kts | 220° |
| 2026-04-16 14:14 | 36.47846 | -6.75838 | 34911 ft | 480 kts | 219° |
| 2026-04-16 14:14 | 36.42724 | -6.81117 | 34912 ft | 480 kts | 219° |
| 2026-04-16 14:15 | 36.37578 | -6.86413 | 34914 ft | 480 kts | 219° |
| 2026-04-16 14:15 | 36.32466 | -6.91663 | 34911 ft | 479 kts | 219° |
| 2026-04-16 14:16 | 36.27316 | -6.96944 | 34911 ft | 480 kts | 219° |
| 2026-04-16 14:16 | 36.22158 | -7.02223 | 34900 ft | 481 kts | 219° |
| 2026-04-16 14:17 | 36.17022 | -7.07471 | 34912 ft | 481 kts | 219° |
| 2026-04-16 14:17 | 36.11838 | -7.12758 | 34910 ft | 481 kts | 219° |
| 2026-04-16 14:18 | 36.06703 | -7.17987 | 34910 ft | 480 kts | 219° |
| 2026-04-16 14:18 | 36.01558 | -7.23215 | 34896 ft | 480 kts | 219° |
| 2026-04-16 14:19 | 35.96377 | -7.28472 | 34893 ft | 480 kts | 219° |
| 2026-04-16 14:19 | 35.91241 | -7.33674 | 34893 ft | 480 kts | 218° |
| 2026-04-16 14:20 | 35.86051 | -7.38922 | 34899 ft | 481 kts | 218° |
| 2026-04-16 14:20 | 35.80875 | -7.44137 | 34896 ft | 481 kts | 218° |
| 2026-04-16 14:21 | 35.75697 | -7.49288 | 34893 ft | 480 kts | 218° |
| 2026-04-16 14:21 | 35.70494 | -7.54485 | 34894 ft | 481 kts | 218° |
| 2026-04-16 14:22 | 35.65300 | -7.59649 | 34894 ft | 481 kts | 218° |
| 2026-04-16 14:22 | 35.60084 | -7.64833 | 34893 ft | 481 kts | 218° |
| 2026-04-16 14:23 | 35.54887 | -7.69986 | 34893 ft | 482 kts | 218° |
| 2026-04-16 14:23 | 35.49662 | -7.75159 | 34893 ft | 482 kts | 218° |
| 2026-04-16 14:24 | 35.44455 | -7.80306 | 34897 ft | 482 kts | 217° |
| 2026-04-16 14:24 | 35.39214 | -7.85487 | 34896 ft | 484 kts | 218° |
| 2026-04-16 14:25 | 35.33986 | -7.90749 | 34888 ft | 484 kts | 218° |
| 2026-04-16 14:25 | 35.28784 | -7.95926 | 34886 ft | 483 kts | 218° |
| 2026-04-16 14:26 | 35.23592 | -8.01108 | 34888 ft | 483 kts | 218° |
| 2026-04-16 14:26 | 35.18381 | -8.06289 | 34891 ft | 484 kts | 217° |
| 2026-04-16 14:27 | 35.13133 | -8.11502 | 34894 ft | 484 kts | 217° |
| 2026-04-16 14:27 | 35.07924 | -8.16667 | 34890 ft | 484 kts | 217° |
| 2026-04-16 14:28 | 35.02684 | -8.21854 | 34887 ft | 484 kts | 217° |
| 2026-04-16 14:28 | 34.97441 | -8.27034 | 34885 ft | 484 kts | 217° |
| 2026-04-16 14:29 | 34.92231 | -8.32174 | 34886 ft | 484 kts | 217° |
| 2026-04-16 14:29 | 34.86982 | -8.37344 | 34888 ft | 484 kts | 217° |
| 2026-04-16 14:30 | 34.81767 | -8.42471 | 34880 ft | 484 kts | 217° |
| 2026-04-16 14:30 | 34.76522 | -8.47619 | 34883 ft | 483 kts | 217° |
| 2026-04-16 14:31 | 34.71307 | -8.52729 | 34889 ft | 483 kts | 217° |
| 2026-04-16 14:31 | 34.66059 | -8.57862 | 34883 ft | 484 kts | 217° |
| 2026-04-16 14:32 | 34.60815 | -8.62983 | 34884 ft | 484 kts | 217° |
| 2026-04-16 14:32 | 34.55586 | -8.68081 | 34885 ft | 484 kts | 217° |
| 2026-04-16 14:33 | 34.50341 | -8.73186 | 34886 ft | 484 kts | 217° |
| 2026-04-16 14:33 | 34.45072 | -8.78306 | 34882 ft | 484 kts | 217° |
| 2026-04-16 14:34 | 34.39820 | -8.83372 | 34885 ft | 484 kts | 216° |
| 2026-04-16 14:34 | 34.34529 | -8.88452 | 34884 ft | 484 kts | 217° |
| 2026-04-16 14:35 | 34.29279 | -8.93496 | 34880 ft | 484 kts | 217° |
| 2026-04-16 14:35 | 34.24030 | -8.98522 | 34881 ft | 483 kts | 217° |
| 2026-04-16 14:36 | 34.18751 | -9.03574 | 34882 ft | 483 kts | 217° |
| 2026-04-16 14:36 | 34.13472 | -9.08615 | 34884 ft | 483 kts | 217° |
| 2026-04-16 14:37 | 34.08189 | -9.13653 | 34881 ft | 484 kts | 217° |
| 2026-04-16 14:37 | 34.02937 | -9.18653 | 34879 ft | 482 kts | 217° |
| 2026-04-16 14:38 | 33.97666 | -9.23662 | 34881 ft | 481 kts | 217° |
| 2026-04-16 14:38 | 33.92418 | -9.28642 | 34876 ft | 481 kts | 217° |
| 2026-04-16 14:39 | 33.87156 | -9.33626 | 34880 ft | 482 kts | 217° |
| 2026-04-16 14:39 | 33.81874 | -9.38622 | 34878 ft | 481 kts | 217° |
| 2026-04-16 14:40 | 33.76627 | -9.43577 | 34880 ft | 482 kts | 217° |
| 2026-04-16 14:40 | 33.71346 | -9.48555 | 34875 ft | 481 kts | 217° |
| 2026-04-16 14:41 | 33.66084 | -9.53508 | 34879 ft | 481 kts | 217° |
| 2026-04-16 14:41 | 33.60830 | -9.58446 | 34875 ft | 481 kts | 217° |
| 2026-04-16 14:42 | 33.55531 | -9.63417 | 34873 ft | 482 kts | 217° |
| 2026-04-16 14:42 | 33.50261 | -9.68355 | 34872 ft | 482 kts | 217° |
| 2026-04-16 14:43 | 33.44968 | -9.73305 | 34876 ft | 481 kts | 217° |
| 2026-04-16 14:43 | 33.39680 | -9.78242 | 34875 ft | 481 kts | 217° |
| 2026-04-16 14:44 | 33.34414 | -9.83152 | 34870 ft | 482 kts | 216° |
| 2026-04-16 14:44 | 33.29141 | -9.88060 | 34865 ft | 481 kts | 217° |
| 2026-04-16 14:45 | 33.23846 | -9.92981 | 34870 ft | 481 kts | 217° |
| 2026-04-16 14:45 | 33.18566 | -9.97880 | 34866 ft | 481 kts | 217° |
| 2026-04-16 14:46 | 33.13270 | -10.02787 | 34868 ft | 480 kts | 217° |
| 2026-04-16 14:46 | 33.08017 | -10.07646 | 34861 ft | 480 kts | 217° |
| 2026-04-16 14:47 | 33.03615 | -10.11712 | 34868 ft | 480 kts | 217° |
| 2026-04-16 14:47 | 32.97478 | -10.17367 | 34864 ft | 479 kts | 217° |
| 2026-04-16 14:48 | 32.93073 | -10.21416 | 34858 ft | 478 kts | 217° |
| 2026-04-16 14:48 | 32.87791 | -10.26267 | 34857 ft | 478 kts | 217° |
| 2026-04-16 14:49 | 32.82558 | -10.31065 | 34848 ft | 477 kts | 217° |
| 2026-04-16 14:49 | 32.77283 | -10.35893 | 34850 ft | 477 kts | 217° |
| 2026-04-16 14:50 | 32.72030 | -10.40695 | 34853 ft | 476 kts | 217° |
| 2026-04-16 14:50 | 32.66807 | -10.45461 | 34857 ft | 476 kts | 217° |
| 2026-04-16 14:51 | 32.61536 | -10.50264 | 34856 ft | 476 kts | 217° |
| 2026-04-16 14:51 | 32.56306 | -10.55023 | 34854 ft | 476 kts | 217° |
| 2026-04-16 14:53 | 32.35272 | -10.74089 | 34855 ft | 476 kts | 218° |
| 2026-04-16 14:54 | 32.30016 | -10.78835 | 34852 ft | 477 kts | 218° |
| 2026-04-16 14:54 | 32.24733 | -10.83599 | 34856 ft | 478 kts | 218° |
| 2026-04-16 14:55 | 32.19433 | -10.88370 | 34852 ft | 478 kts | 218° |
| 2026-04-16 14:55 | 32.14148 | -10.93121 | 34856 ft | 479 kts | 218° |
| 2026-04-16 14:56 | 32.08830 | -10.97894 | 34855 ft | 479 kts | 218° |
| 2026-04-16 14:56 | 32.03534 | -11.02641 | 34853 ft | 480 kts | 218° |
| 2026-04-16 14:57 | 31.98195 | -11.07419 | 34852 ft | 480 kts | 218° |
| 2026-04-16 14:57 | 31.92898 | -11.12152 | 34848 ft | 481 kts | 218° |
| 2026-04-16 14:58 | 31.84897 | -11.19289 | 34849 ft | 482 kts | 219° |
| 2026-04-16 14:59 | 31.79532 | -11.24065 | 34848 ft | 483 kts | 219° |
| 2026-04-16 14:59 | 31.74157 | -11.28844 | 34849 ft | 484 kts | 219° |
| 2026-04-16 15:00 | 31.68827 | -11.33605 | 34842 ft | 484 kts | 219° |
| 2026-04-16 15:00 | 31.63448 | -11.38394 | 34847 ft | 483 kts | 219° |
| 2026-04-16 15:01 | 31.58115 | -11.43139 | 34842 ft | 483 kts | 220° |
| 2026-04-16 15:01 | 31.52742 | -11.47911 | 34837 ft | 484 kts | 220° |
| 2026-04-16 15:02 | 31.47381 | -11.52665 | 34833 ft | 485 kts | 220° |
| 2026-04-16 15:02 | 31.41991 | -11.57438 | 34837 ft | 485 kts | 220° |
| 2026-04-16 15:03 | 31.36598 | -11.62207 | 34838 ft | 484 kts | 220° |
| 2026-04-16 15:03 | 31.31245 | -11.66933 | 34837 ft | 485 kts | 220° |
| 2026-04-16 15:04 | 31.25838 | -11.71701 | 34836 ft | 485 kts | 221° |
| 2026-04-16 15:04 | 31.20461 | -11.76434 | 34842 ft | 486 kts | 221° |
| 2026-04-16 15:05 | 31.15034 | -11.81204 | 34840 ft | 486 kts | 221° |
| 2026-04-16 15:05 | 31.09650 | -11.85930 | 34838 ft | 487 kts | 221° |
| 2026-04-16 15:06 | 31.04216 | -11.90692 | 34831 ft | 486 kts | 221° |
| 2026-04-16 15:06 | 30.98821 | -11.95414 | 34833 ft | 486 kts | 221° |
| 2026-04-16 15:07 | 30.93435 | -12.00121 | 34834 ft | 486 kts | 221° |
| 2026-04-16 15:07 | 30.88000 | -12.04864 | 34835 ft | 486 kts | 221° |
| 2026-04-16 15:08 | 30.82597 | -12.09573 | 34835 ft | 486 kts | 222° |
| 2026-04-16 15:08 | 30.77172 | -12.14293 | 34839 ft | 485 kts | 222° |
| 2026-04-16 15:09 | 30.71783 | -12.18977 | 34835 ft | 486 kts | 222° |
| 2026-04-16 15:09 | 30.66352 | -12.23688 | 34834 ft | 486 kts | 222° |
| 2026-04-16 15:10 | 30.60946 | -12.28372 | 34839 ft | 486 kts | 222° |
| 2026-04-16 15:10 | 30.55516 | -12.33070 | 34832 ft | 485 kts | 222° |
| 2026-04-16 15:11 | 30.50092 | -12.37756 | 34846 ft | 486 kts | 222° |
| 2026-04-16 15:11 | 30.44687 | -12.42402 | 34843 ft | 486 kts | 222° |
| 2026-04-16 15:12 | 30.39244 | -12.47076 | 34836 ft | 486 kts | 223° |
| 2026-04-16 15:12 | 30.33827 | -12.51722 | 34835 ft | 486 kts | 223° |
| 2026-04-16 15:13 | 30.28379 | -12.56386 | 34831 ft | 485 kts | 223° |
| 2026-04-16 15:13 | 30.22972 | -12.61010 | 34836 ft | 485 kts | 223° |
| 2026-04-16 15:14 | 30.17521 | -12.65664 | 34832 ft | 485 kts | 223° |
| 2026-04-16 15:14 | 30.12109 | -12.70279 | 34835 ft | 485 kts | 223° |
| 2026-04-16 15:15 | 30.06682 | -12.74910 | 34833 ft | 484 kts | 223° |
| 2026-04-16 15:15 | 30.01297 | -12.79521 | 34834 ft | 484 kts | 223° |
| 2026-04-16 15:16 | 29.95863 | -12.84152 | 34836 ft | 483 kts | 223° |
| 2026-04-16 15:16 | 29.90488 | -12.88735 | 34836 ft | 482 kts | 223° |
| 2026-04-16 15:17 | 29.85065 | -12.93348 | 34833 ft | 483 kts | 223° |
| 2026-04-16 15:17 | 29.79676 | -12.97928 | 34827 ft | 482 kts | 223° |
| 2026-04-16 15:18 | 29.74304 | -13.02486 | 34828 ft | 482 kts | 223° |
| 2026-04-16 15:18 | 29.68918 | -13.07051 | 34827 ft | 481 kts | 223° |
| 2026-04-16 15:19 | 29.63509 | -13.11629 | 34827 ft | 481 kts | 223° |
| 2026-04-16 15:19 | 29.58145 | -13.16162 | 34824 ft | 480 kts | 222° |
| 2026-04-16 15:20 | 29.52748 | -13.20717 | 34828 ft | 480 kts | 222° |
| 2026-04-16 15:20 | 29.47382 | -13.25240 | 34827 ft | 480 kts | 222° |
| 2026-04-16 15:21 | 29.41979 | -13.29787 | 34830 ft | 480 kts | 222° |
| 2026-04-16 15:21 | 29.36612 | -13.34299 | 34828 ft | 480 kts | 222° |
| 2026-04-16 15:22 | 29.31213 | -13.38831 | 34827 ft | 480 kts | 222° |
| 2026-04-16 15:22 | 29.25855 | -13.43323 | 34830 ft | 479 kts | 222° |
| 2026-04-16 15:23 | 29.20459 | -13.47841 | 34816 ft | 479 kts | 222° |
| 2026-04-16 15:23 | 29.14980 | -13.52226 | 34840 ft | 482 kts | 217° |
| 2026-04-16 15:24 | 29.09320 | -13.56271 | 34818 ft | 482 kts | 218° |
| 2026-04-16 15:24 | 29.03612 | -13.60346 | 34813 ft | 482 kts | 218° |
| 2026-04-16 15:25 | 28.97913 | -13.64405 | 34807 ft | 482 kts | 218° |
| 2026-04-16 15:25 | 28.92254 | -13.68435 | 34811 ft | 481 kts | 218° |
| 2026-04-16 15:26 | 28.86568 | -13.72475 | 34813 ft | 480 kts | 218° |
| 2026-04-16 15:26 | 28.80923 | -13.76484 | 35092 ft | 479 kts | 217° |
| 2026-04-16 15:26 | 28.78098 | -13.78485 | 35367 ft | 477 kts | 217° |
| 2026-04-16 15:27 | 28.75278 | -13.80484 | 35615 ft | 475 kts | 217° |
| 2026-04-16 15:27 | 28.69650 | -13.84474 | 35616 ft | 480 kts | 217° |
| 2026-04-16 15:28 | 28.63981 | -13.88475 | 35546 ft | 475 kts | 217° |
| 2026-04-16 15:28 | 28.58397 | -13.92425 | 35531 ft | 474 kts | 217° |
| 2026-04-16 15:29 | 28.52774 | -13.96388 | 35535 ft | 473 kts | 217° |
| 2026-04-16 15:29 | 28.47186 | -14.00326 | 35531 ft | 474 kts | 217° |
| 2026-04-16 15:30 | 28.41607 | -14.04250 | 35533 ft | 472 kts | 217° |
| 2026-04-16 15:30 | 28.36006 | -14.08188 | 35526 ft | 472 kts | 217° |
| 2026-04-16 15:31 | 28.30444 | -14.12090 | 35527 ft | 472 kts | 217° |
| 2026-04-16 15:31 | 28.24852 | -14.16010 | 35539 ft | 472 kts | 217° |
| 2026-04-16 15:32 | 28.19284 | -14.19908 | 35530 ft | 472 kts | 217° |
| 2026-04-16 15:32 | 28.13686 | -14.23822 | 35528 ft | 471 kts | 217° |
| 2026-04-16 15:33 | 28.08123 | -14.27706 | 35523 ft | 469 kts | 217° |
| 2026-04-16 15:33 | 28.02552 | -14.31593 | 35523 ft | 469 kts | 217° |
| 2026-04-16 15:34 | 27.97008 | -14.35455 | 35538 ft | 470 kts | 217° |
| 2026-04-16 15:34 | 27.91428 | -14.39336 | 35528 ft | 470 kts | 217° |
| 2026-04-16 15:35 | 27.85875 | -14.43195 | 35528 ft | 468 kts | 217° |
| 2026-04-16 15:35 | 27.81246 | -14.46408 | 35528 ft | 469 kts | 217° |
| 2026-04-16 15:36 | 27.75705 | -14.50250 | 35520 ft | 468 kts | 217° |
| 2026-04-16 15:36 | 27.70140 | -14.54104 | 35516 ft | 468 kts | 217° |
| 2026-04-16 15:37 | 27.64608 | -14.57931 | 35519 ft | 468 kts | 216° |
| 2026-04-16 15:37 | 27.59036 | -14.61780 | 35521 ft | 468 kts | 216° |
| 2026-04-16 15:38 | 27.53502 | -14.65599 | 35515 ft | 468 kts | 216° |
| 2026-04-16 15:38 | 27.47950 | -14.69424 | 35515 ft | 467 kts | 216° |
| 2026-04-16 15:39 | 27.42399 | -14.73246 | 35509 ft | 467 kts | 216° |
| 2026-04-16 15:39 | 27.36867 | -14.77050 | 35511 ft | 467 kts | 216° |
| 2026-04-16 15:40 | 27.31317 | -14.80861 | 35505 ft | 467 kts | 216° |
| 2026-04-16 15:40 | 27.25791 | -14.84652 | 35511 ft | 468 kts | 216° |
| 2026-04-16 15:41 | 27.20226 | -14.88464 | 35509 ft | 467 kts | 216° |
| 2026-04-16 15:41 | 27.14662 | -14.92271 | 35509 ft | 466 kts | 216° |
| 2026-04-16 15:42 | 27.09140 | -14.96046 | 35507 ft | 465 kts | 216° |
| 2026-04-16 15:42 | 27.03632 | -14.99806 | 35504 ft | 464 kts | 216° |
| 2026-04-16 15:43 | 26.98106 | -15.03574 | 35503 ft | 464 kts | 216° |
| 2026-04-16 15:43 | 26.92597 | -15.07326 | 35502 ft | 464 kts | 216° |
| 2026-04-16 15:44 | 26.87072 | -15.11085 | 35502 ft | 464 kts | 216° |
| 2026-04-16 15:44 | 26.81570 | -15.14825 | 35498 ft | 464 kts | 216° |
| 2026-04-16 15:45 | 26.76049 | -15.18571 | 35502 ft | 463 kts | 216° |
| 2026-04-16 15:45 | 26.70527 | -15.22316 | 35494 ft | 464 kts | 216° |
| 2026-04-16 15:46 | 26.65033 | -15.26036 | 35494 ft | 464 kts | 216° |
| 2026-04-16 15:46 | 26.59510 | -15.29772 | 35487 ft | 463 kts | 216° |
| 2026-04-16 15:47 | 26.53986 | -15.33503 | 35490 ft | 463 kts | 216° |
| 2026-04-16 15:47 | 26.48470 | -15.37226 | 35489 ft | 463 kts | 216° |
| 2026-04-16 15:48 | 26.42973 | -15.40932 | 35487 ft | 463 kts | 216° |
| 2026-04-16 15:48 | 26.37476 | -15.44633 | 35486 ft | 463 kts | 216° |
| 2026-04-16 15:49 | 26.31935 | -15.48360 | 35483 ft | 463 kts | 215° |
| 2026-04-16 15:49 | 26.26422 | -15.52064 | 35482 ft | 464 kts | 215° |
| 2026-04-16 15:50 | 26.20884 | -15.55780 | 35495 ft | 464 kts | 215° |
| 2026-04-16 15:50 | 26.15370 | -15.59476 | 35490 ft | 464 kts | 215° |
| 2026-04-16 15:51 | 26.09826 | -15.63188 | 35814 ft | 463 kts | 215° |
| 2026-04-16 15:51 | 26.04266 | -15.66910 | 35618 ft | 472 kts | 215° |
| 2026-04-16 15:51 | 26.01442 | -15.68794 | 35437 ft | 470 kts | 215° |
| 2026-04-16 15:52 | 25.98637 | -15.70665 | 35363 ft | 466 kts | 215° |
| 2026-04-16 15:52 | 25.93113 | -15.74355 | 35334 ft | 466 kts | 215° |
| 2026-04-16 15:53 | 25.87541 | -15.78066 | 35333 ft | 463 kts | 215° |
| 2026-04-16 15:53 | 25.82067 | -15.81712 | 35321 ft | 460 kts | 215° |
| 2026-04-16 15:54 | 25.76565 | -15.85372 | 35320 ft | 460 kts | 215° |
| 2026-04-16 15:54 | 25.71086 | -15.89012 | 35322 ft | 461 kts | 215° |
| 2026-04-16 15:55 | 25.65572 | -15.92672 | 35319 ft | 460 kts | 215° |
| 2026-04-16 15:55 | 25.60061 | -15.96325 | 35318 ft | 461 kts | 215° |
| 2026-04-16 15:56 | 25.54587 | -15.99950 | 35311 ft | 460 kts | 215° |
| 2026-04-16 15:56 | 25.49103 | -16.03578 | 35314 ft | 460 kts | 215° |
| 2026-04-16 15:57 | 25.43591 | -16.07220 | 35313 ft | 461 kts | 215° |
| 2026-04-16 15:57 | 25.38112 | -16.10836 | 35313 ft | 460 kts | 215° |
| 2026-04-16 15:58 | 25.32616 | -16.14461 | 35313 ft | 460 kts | 215° |
| 2026-04-16 15:58 | 25.27127 | -16.18076 | 35310 ft | 460 kts | 215° |
| 2026-04-16 15:59 | 25.18843 | -16.23525 | 35306 ft | 461 kts | 215° |
| 2026-04-16 15:59 | 25.13355 | -16.27130 | 35308 ft | 460 kts | 215° |
| 2026-04-16 16:00 | 25.07841 | -16.30750 | 35306 ft | 461 kts | 215° |
| 2026-04-16 16:00 | 25.02349 | -16.34349 | 35304 ft | 462 kts | 215° |
| 2026-04-16 16:01 | 24.96808 | -16.37977 | 35312 ft | 461 kts | 215° |
| 2026-04-16 16:01 | 24.91324 | -16.41564 | 35312 ft | 461 kts | 215° |
| 2026-04-16 16:02 | 24.85783 | -16.45184 | 35310 ft | 461 kts | 215° |
| 2026-04-16 16:02 | 24.80292 | -16.48767 | 35301 ft | 461 kts | 215° |
| 2026-04-16 16:03 | 24.74737 | -16.52389 | 35299 ft | 461 kts | 215° |
| 2026-04-16 16:03 | 24.69257 | -16.55958 | 35299 ft | 462 kts | 215° |
| 2026-04-16 16:04 | 24.63707 | -16.59569 | 35308 ft | 462 kts | 215° |
| 2026-04-16 16:04 | 24.58159 | -16.63174 | 35303 ft | 463 kts | 214° |
| 2026-04-16 16:05 | 24.52626 | -16.66767 | 35310 ft | 464 kts | 214° |
| 2026-04-16 16:05 | 24.47072 | -16.70368 | 35306 ft | 465 kts | 214° |
| 2026-04-16 16:06 | 24.41490 | -16.73985 | 35298 ft | 465 kts | 214° |
| 2026-04-16 16:06 | 24.35924 | -16.77588 | 35301 ft | 465 kts | 214° |
| 2026-04-16 16:07 | 24.30327 | -16.81206 | 35305 ft | 465 kts | 214° |
| 2026-04-16 16:07 | 24.24774 | -16.84793 | 35303 ft | 464 kts | 214° |
| 2026-04-16 16:08 | 24.19199 | -16.88390 | 35304 ft | 465 kts | 214° |
| 2026-04-16 16:08 | 24.13648 | -16.91967 | 35290 ft | 464 kts | 214° |
| 2026-04-16 16:09 | 24.08069 | -16.95560 | 35293 ft | 463 kts | 214° |
| 2026-04-16 16:09 | 24.02539 | -16.99117 | 35287 ft | 463 kts | 214° |
| 2026-04-16 16:10 | 23.97004 | -17.02674 | 35290 ft | 463 kts | 214° |
| 2026-04-16 16:10 | 23.91431 | -17.06251 | 35290 ft | 463 kts | 214° |
| 2026-04-16 16:11 | 23.85894 | -17.09803 | 35288 ft | 463 kts | 214° |
| 2026-04-16 16:11 | 23.80313 | -17.13378 | 35283 ft | 463 kts | 214° |
| 2026-04-16 16:12 | 23.74778 | -17.16920 | 35282 ft | 462 kts | 214° |
| 2026-04-16 16:12 | 23.69231 | -17.20467 | 35277 ft | 461 kts | 214° |
| 2026-04-16 16:13 | 23.63714 | -17.23991 | 35278 ft | 461 kts | 214° |
| 2026-04-16 16:13 | 23.58148 | -17.27543 | 35277 ft | 462 kts | 214° |
| 2026-04-16 16:14 | 23.52632 | -17.31059 | 35278 ft | 461 kts | 214° |
| 2026-04-16 16:14 | 23.47067 | -17.34603 | 35277 ft | 462 kts | 214° |
| 2026-04-16 16:15 | 23.41538 | -17.38120 | 35274 ft | 462 kts | 214° |
| 2026-04-16 16:15 | 23.35978 | -17.41655 | 35269 ft | 462 kts | 214° |
| 2026-04-16 16:16 | 23.30449 | -17.45165 | 35271 ft | 462 kts | 214° |
| 2026-04-16 16:16 | 23.24879 | -17.48699 | 35267 ft | 462 kts | 214° |
| 2026-04-16 16:17 | 23.19345 | -17.52206 | 35271 ft | 463 kts | 214° |
| 2026-04-16 16:17 | 23.13772 | -17.55734 | 35264 ft | 462 kts | 214° |
| 2026-04-16 16:18 | 23.08246 | -17.59229 | 35265 ft | 461 kts | 214° |
| 2026-04-16 16:18 | 23.02686 | -17.62743 | 35270 ft | 461 kts | 214° |
| 2026-04-16 16:19 | 22.97175 | -17.66222 | 35271 ft | 460 kts | 214° |
| 2026-04-16 16:19 | 22.91631 | -17.69719 | 35264 ft | 460 kts | 214° |
| 2026-04-16 16:20 | 22.86086 | -17.73213 | 35268 ft | 461 kts | 214° |
| 2026-04-16 16:20 | 22.80559 | -17.76691 | 35269 ft | 460 kts | 214° |
| 2026-04-16 16:21 | 22.75042 | -17.80162 | 35267 ft | 461 kts | 214° |
| 2026-04-16 16:21 | 22.69465 | -17.83666 | 35264 ft | 461 kts | 214° |
| 2026-04-16 16:22 | 22.63944 | -17.87131 | 35267 ft | 460 kts | 215° |
| 2026-04-16 16:22 | 22.58387 | -17.90616 | 35263 ft | 460 kts | 214° |
| 2026-04-16 16:23 | 22.52878 | -17.94068 | 35263 ft | 460 kts | 215° |
| 2026-04-16 16:23 | 22.47324 | -17.97544 | 35262 ft | 460 kts | 215° |
| 2026-04-16 16:24 | 22.41764 | -18.01021 | 35262 ft | 461 kts | 215° |
| 2026-04-16 16:24 | 22.36223 | -18.04483 | 35261 ft | 461 kts | 215° |
| 2026-04-16 16:25 | 22.31593 | -18.07373 | 35261 ft | 461 kts | 215° |
| 2026-04-16 16:25 | 22.26054 | -18.10828 | 35259 ft | 461 kts | 215° |
| 2026-04-16 16:26 | 22.20482 | -18.14300 | 35259 ft | 461 kts | 215° |
| 2026-04-16 16:26 | 22.14941 | -18.17750 | 35258 ft | 462 kts | 215° |
| 2026-04-16 16:27 | 22.09365 | -18.21218 | 35253 ft | 461 kts | 215° |
| 2026-04-16 16:27 | 22.03818 | -18.24665 | 35254 ft | 461 kts | 215° |
| 2026-04-16 16:28 | 21.98238 | -18.28129 | 35256 ft | 461 kts | 215° |
| 2026-04-16 16:28 | 21.92707 | -18.31560 | 35258 ft | 462 kts | 215° |
| 2026-04-16 16:29 | 21.87124 | -18.35020 | 35253 ft | 461 kts | 215° |
| 2026-04-16 16:29 | 21.81581 | -18.38452 | 35254 ft | 461 kts | 215° |
| 2026-04-16 16:30 | 21.76019 | -18.41892 | 35248 ft | 460 kts | 215° |
| 2026-04-16 16:30 | 21.70494 | -18.45307 | 35250 ft | 460 kts | 215° |
| 2026-04-16 16:31 | 21.64939 | -18.48737 | 35251 ft | 460 kts | 215° |
| 2026-04-16 16:31 | 21.59387 | -18.52162 | 35253 ft | 459 kts | 215° |
| 2026-04-16 16:32 | 21.53854 | -18.55573 | 35266 ft | 459 kts | 215° |
| 2026-04-16 16:32 | 21.48333 | -18.58973 | 35266 ft | 460 kts | 215° |
| 2026-04-16 16:33 | 21.42772 | -18.62394 | 35259 ft | 459 kts | 215° |
| 2026-04-16 16:33 | 21.37223 | -18.65806 | 35257 ft | 459 kts | 215° |
| 2026-04-16 16:34 | 21.31694 | -18.69202 | 35255 ft | 460 kts | 216° |
| 2026-04-16 16:34 | 21.26119 | -18.72621 | 35256 ft | 460 kts | 216° |
| 2026-04-16 16:35 | 21.20584 | -18.76014 | 35248 ft | 460 kts | 216° |
| 2026-04-16 16:35 | 21.15012 | -18.79426 | 35251 ft | 460 kts | 216° |
| 2026-04-16 16:36 | 21.09467 | -18.82819 | 35248 ft | 461 kts | 216° |
| 2026-04-16 16:36 | 21.03917 | -18.86212 | 35251 ft | 461 kts | 216° |
| 2026-04-16 16:37 | 20.98339 | -18.89619 | 35249 ft | 461 kts | 216° |
| 2026-04-16 16:37 | 20.92767 | -18.93019 | 35248 ft | 460 kts | 216° |
| 2026-04-16 16:38 | 20.87226 | -18.96398 | 35245 ft | 460 kts | 216° |
| 2026-04-16 16:38 | 20.81667 | -18.99785 | 35253 ft | 461 kts | 216° |
| 2026-04-16 16:39 | 20.76073 | -19.03190 | 35250 ft | 461 kts | 216° |
| 2026-04-16 16:39 | 20.70522 | -19.06566 | 35171 ft | 461 kts | 216° |
| 2026-04-16 16:40 | 20.64941 | -19.09959 | 35253 ft | 463 kts | 216° |
| 2026-04-16 16:40 | 20.59336 | -19.13359 | 35250 ft | 461 kts | 216° |
| 2026-04-16 16:41 | 20.53787 | -19.16727 | 35250 ft | 461 kts | 217° |
| 2026-04-16 16:41 | 20.48183 | -19.20123 | 35253 ft | 461 kts | 217° |
| 2026-04-16 16:42 | 20.42614 | -19.23496 | 35247 ft | 462 kts | 217° |
| 2026-04-16 16:42 | 20.37015 | -19.26883 | 35246 ft | 461 kts | 217° |
| 2026-04-16 16:43 | 20.31457 | -19.30244 | 35250 ft | 461 kts | 217° |
| 2026-04-16 16:43 | 20.25862 | -19.33624 | 35252 ft | 462 kts | 217° |
| 2026-04-16 16:44 | 20.20263 | -19.37004 | 35247 ft | 462 kts | 217° |
| 2026-04-16 16:44 | 20.14690 | -19.40364 | 35246 ft | 461 kts | 217° |
| 2026-04-16 16:45 | 20.09096 | -19.43736 | 35251 ft | 461 kts | 217° |
| 2026-04-16 16:45 | 20.03504 | -19.47102 | 35269 ft | 461 kts | 217° |
| 2026-04-16 16:46 | 19.97942 | -19.50448 | 35254 ft | 461 kts | 217° |
| 2026-04-16 16:46 | 19.92341 | -19.53815 | 35249 ft | 462 kts | 217° |
| 2026-04-16 16:47 | 19.86739 | -19.57179 | 35252 ft | 463 kts | 217° |
| 2026-04-16 16:47 | 19.81152 | -19.60532 | 35252 ft | 463 kts | 217° |
| 2026-04-16 16:48 | 19.75558 | -19.63886 | 35249 ft | 464 kts | 217° |
| 2026-04-16 16:48 | 19.69908 | -19.67271 | 35243 ft | 464 kts | 217° |
| 2026-04-16 16:49 | 19.64313 | -19.70620 | 35247 ft | 463 kts | 217° |
| 2026-04-16 16:49 | 19.58691 | -19.73983 | 35249 ft | 463 kts | 217° |
| 2026-04-16 16:50 | 19.53059 | -19.77351 | 35242 ft | 463 kts | 217° |
| 2026-04-16 16:50 | 19.47478 | -19.80686 | 35254 ft | 462 kts | 217° |
| 2026-04-16 16:51 | 19.41893 | -19.84020 | 35244 ft | 462 kts | 217° |
| 2026-04-16 16:51 | 19.36289 | -19.87363 | 35249 ft | 461 kts | 217° |
| 2026-04-16 16:52 | 19.30681 | -19.90706 | 35254 ft | 462 kts | 217° |
| 2026-04-16 16:52 | 19.25062 | -19.94053 | 35252 ft | 462 kts | 217° |
| 2026-04-16 16:53 | 19.19480 | -19.97375 | 35252 ft | 462 kts | 217° |
| 2026-04-16 16:53 | 19.13867 | -20.00713 | 35251 ft | 462 kts | 217° |
| 2026-04-16 16:54 | 19.08280 | -20.04033 | 35251 ft | 463 kts | 217° |
| 2026-04-16 16:54 | 19.02647 | -20.07377 | 35250 ft | 463 kts | 217° |
| 2026-04-16 16:55 | 18.97041 | -20.10703 | 35250 ft | 463 kts | 217° |
| 2026-04-16 16:55 | 18.91398 | -20.14048 | 35250 ft | 464 kts | 217° |
| 2026-04-16 16:56 | 18.85778 | -20.17377 | 35247 ft | 465 kts | 217° |
| 2026-04-16 16:56 | 18.80112 | -20.20730 | 35252 ft | 465 kts | 217° |
| 2026-04-16 16:57 | 18.71655 | -20.25731 | 35247 ft | 465 kts | 217° |
| 2026-04-16 16:58 | 18.66001 | -20.29072 | 35249 ft | 466 kts | 217° |
| 2026-04-16 16:58 | 18.60363 | -20.32400 | 35252 ft | 467 kts | 217° |
| 2026-04-16 16:59 | 18.54688 | -20.35746 | 35262 ft | 467 kts | 217° |
| 2026-04-16 16:59 | 18.49012 | -20.39092 | 35261 ft | 467 kts | 217° |
| 2026-04-16 17:00 | 18.43374 | -20.42411 | 35252 ft | 466 kts | 217° |
| 2026-04-16 17:00 | 18.37703 | -20.45751 | 35251 ft | 466 kts | 217° |
| 2026-04-16 17:01 | 18.32023 | -20.49090 | 35251 ft | 467 kts | 217° |
| 2026-04-16 17:01 | 18.26365 | -20.52414 | 35241 ft | 467 kts | 217° |
| 2026-04-16 17:02 | 18.20664 | -20.55761 | 35249 ft | 468 kts | 217° |
| 2026-04-16 17:02 | 18.15000 | -20.59085 | 35247 ft | 469 kts | 217° |
| 2026-04-16 17:03 | 18.09290 | -20.62432 | 35249 ft | 469 kts | 217° |
| 2026-04-16 17:03 | 18.03621 | -20.65753 | 35254 ft | 469 kts | 217° |
| 2026-04-16 17:04 | 17.97888 | -20.69109 | 35250 ft | 470 kts | 217° |
| 2026-04-16 17:04 | 17.92176 | -20.72450 | 35254 ft | 469 kts | 217° |
| 2026-04-16 17:05 | 17.86505 | -20.75765 | 35254 ft | 468 kts | 217° |
| 2026-04-16 17:05 | 17.80800 | -20.79097 | 35252 ft | 469 kts | 217° |
| 2026-04-16 17:06 | 17.75079 | -20.82436 | 35248 ft | 470 kts | 217° |
| 2026-04-16 17:06 | 17.69391 | -20.85753 | 35249 ft | 470 kts | 217° |
| 2026-04-16 17:07 | 17.63660 | -20.89094 | 35254 ft | 470 kts | 217° |
| 2026-04-16 17:07 | 17.57943 | -20.92422 | 35251 ft | 470 kts | 217° |
| 2026-04-16 17:08 | 17.52257 | -20.95732 | 35253 ft | 470 kts | 217° |
| 2026-04-16 17:08 | 17.46522 | -20.99067 | 35252 ft | 471 kts | 217° |
| 2026-04-16 17:09 | 17.40774 | -21.02407 | 35253 ft | 472 kts | 217° |
| 2026-04-16 17:09 | 17.35026 | -21.05745 | 35251 ft | 472 kts | 217° |
| 2026-04-16 17:10 | 17.29309 | -21.09061 | 35249 ft | 472 kts | 217° |
| 2026-04-16 17:10 | 17.23553 | -21.12400 | 35257 ft | 472 kts | 217° |
| 2026-04-16 17:11 | 17.17820 | -21.15721 | 35258 ft | 471 kts | 218° |
| 2026-04-16 17:11 | 17.12081 | -21.19045 | 35259 ft | 472 kts | 217° |
| 2026-04-16 17:12 | 17.06358 | -21.22355 | 35259 ft | 472 kts | 217° |
| 2026-04-16 17:12 | 17.01553 | -21.25135 | 35260 ft | 474 kts | 217° |
| 2026-04-16 17:13 | 16.94825 | -21.29021 | 35262 ft | 474 kts | 217° |
| 2026-04-16 17:13 | 16.90002 | -21.31806 | 35262 ft | 475 kts | 217° |
| 2026-04-16 17:14 | 16.84247 | -21.35127 | 35260 ft | 475 kts | 217° |
| 2026-04-16 17:14 | 16.78451 | -21.38468 | 35256 ft | 474 kts | 217° |
| 2026-04-16 17:15 | 16.72657 | -21.41808 | 35256 ft | 475 kts | 217° |
| 2026-04-16 17:15 | 16.66891 | -21.45128 | 35262 ft | 476 kts | 217° |
| 2026-04-16 17:16 | 16.61067 | -21.48479 | 35262 ft | 477 kts | 217° |
| 2026-04-16 17:16 | 16.55240 | -21.51830 | 35262 ft | 477 kts | 217° |
| 2026-04-16 17:17 | 16.49455 | -21.55153 | 35258 ft | 478 kts | 217° |
| 2026-04-16 17:17 | 16.43624 | -21.58501 | 35260 ft | 477 kts | 217° |
| 2026-04-16 17:18 | 16.37794 | -21.61848 | 35252 ft | 478 kts | 217° |
| 2026-04-16 17:18 | 16.32001 | -21.65169 | 35258 ft | 478 kts | 217° |
| 2026-04-16 17:19 | 16.26181 | -21.68504 | 35262 ft | 477 kts | 217° |
| 2026-04-16 17:19 | 16.20343 | -21.71848 | 35257 ft | 477 kts | 217° |
| 2026-04-16 17:20 | 16.14544 | -21.75166 | 35254 ft | 478 kts | 217° |
| 2026-04-16 17:20 | 16.08736 | -21.78487 | 35257 ft | 477 kts | 217° |
| 2026-04-16 17:21 | 16.02899 | -21.81823 | 35254 ft | 478 kts | 217° |
| 2026-04-16 17:21 | 15.97059 | -21.85158 | 35477 ft | 478 kts | 217° |
| 2026-04-16 17:21 | 15.94179 | -21.86801 | 35712 ft | 477 kts | 217° |
| 2026-04-16 17:22 | 15.91271 | -21.88460 | 35942 ft | 476 kts | 217° |
| 2026-04-16 17:22 | 15.88365 | -21.90115 | 36164 ft | 476 kts | 217° |
| 2026-04-16 17:22 | 15.85466 | -21.91765 | 36401 ft | 475 kts | 217° |
| 2026-04-16 17:22 | 15.82561 | -21.93419 | 36594 ft | 474 kts | 217° |
| 2026-04-16 17:23 | 15.79661 | -21.95071 | 36731 ft | 476 kts | 217° |
| 2026-04-16 17:23 | 15.73860 | -21.98371 | 36671 ft | 477 kts | 217° |
| 2026-04-16 17:24 | 15.68053 | -22.01670 | 36641 ft | 473 kts | 217° |
| 2026-04-16 17:24 | 15.62304 | -22.04941 | 36632 ft | 474 kts | 217° |
| 2026-04-16 17:25 | 15.56508 | -22.08229 | 36626 ft | 474 kts | 217° |
| 2026-04-16 17:25 | 15.50748 | -22.11499 | 36619 ft | 474 kts | 217° |
| 2026-04-16 17:26 | 15.44941 | -22.14791 | 36618 ft | 474 kts | 217° |
| 2026-04-16 17:26 | 15.39174 | -22.18059 | 36618 ft | 474 kts | 217° |
| 2026-04-16 17:27 | 15.33360 | -22.21352 | 36617 ft | 475 kts | 217° |
| 2026-04-16 17:27 | 15.27578 | -22.24624 | 36611 ft | 475 kts | 217° |
| 2026-04-16 17:28 | 15.21799 | -22.27893 | 36614 ft | 475 kts | 217° |
| 2026-04-16 17:28 | 15.15977 | -22.31184 | 36612 ft | 476 kts | 217° |
| 2026-04-16 17:29 | 15.10155 | -22.34472 | 36608 ft | 475 kts | 217° |
| 2026-04-16 17:29 | 15.04372 | -22.37738 | 36613 ft | 476 kts | 217° |
| 2026-04-16 17:30 | 14.98576 | -22.41007 | 36614 ft | 475 kts | 217° |
| 2026-04-16 17:30 | 14.92756 | -22.44289 | 36610 ft | 475 kts | 217° |
| 2026-04-16 17:31 | 14.86966 | -22.47552 | 36611 ft | 476 kts | 217° |
| 2026-04-16 17:31 | 14.81145 | -22.50830 | 36610 ft | 475 kts | 216° |
| 2026-04-16 17:32 | 14.75344 | -22.54095 | 36611 ft | 476 kts | 216° |
| 2026-04-16 17:32 | 14.69526 | -22.57367 | 36606 ft | 476 kts | 216° |
| 2026-04-16 17:33 | 14.63702 | -22.60641 | 36612 ft | 476 kts | 216° |
| 2026-04-16 17:33 | 14.57900 | -22.63900 | 36611 ft | 476 kts | 216° |
| 2026-04-16 17:34 | 14.52060 | -22.67179 | 36612 ft | 476 kts | 216° |
| 2026-04-16 17:34 | 14.46262 | -22.70432 | 36609 ft | 476 kts | 216° |
| 2026-04-16 17:35 | 14.40423 | -22.73707 | 36610 ft | 476 kts | 216° |
| 2026-04-16 17:35 | 14.34624 | -22.76956 | 36604 ft | 477 kts | 216° |
| 2026-04-16 17:36 | 14.28783 | -22.80228 | 36606 ft | 477 kts | 216° |
| 2026-04-16 17:36 | 14.22942 | -22.83497 | 36604 ft | 477 kts | 216° |
| 2026-04-16 17:37 | 14.17122 | -22.86753 | 36609 ft | 478 kts | 216° |
| 2026-04-16 17:37 | 14.11295 | -22.90010 | 36743 ft | 478 kts | 216° |
| 2026-04-16 17:37 | 14.08362 | -22.91649 | 37008 ft | 476 kts | 216° |
| 2026-04-16 17:38 | 14.05449 | -22.93276 | 37210 ft | 476 kts | 216° |
| 2026-04-16 17:38 | 14.02537 | -22.94903 | 37419 ft | 476 kts | 216° |
| 2026-04-16 17:38 | 13.99662 | -22.96509 | 37594 ft | 476 kts | 216° |
| 2026-04-16 17:38 | 13.96746 | -22.98136 | 37779 ft | 476 kts | 216° |
| 2026-04-16 17:39 | 13.93830 | -22.99764 | 37839 ft | 478 kts | 216° |
| 2026-04-16 17:39 | 13.87960 | -23.03037 | 37837 ft | 477 kts | 216° |
| 2026-04-16 17:40 | 13.82137 | -23.06283 | 37833 ft | 475 kts | 216° |
| 2026-04-16 17:40 | 13.76348 | -23.09510 | 37835 ft | 475 kts | 216° |
| 2026-04-16 17:41 | 13.70525 | -23.12751 | 37836 ft | 475 kts | 216° |
| 2026-04-16 17:41 | 13.64726 | -23.15979 | 37838 ft | 476 kts | 215° |
| 2026-04-16 17:42 | 13.58889 | -23.19225 | 37836 ft | 476 kts | 215° |
| 2026-04-16 17:42 | 13.53079 | -23.22455 | 37832 ft | 476 kts | 215° |
| 2026-04-16 17:43 | 13.47253 | -23.25692 | 37832 ft | 476 kts | 215° |
| 2026-04-16 17:43 | 13.41443 | -23.28924 | 37834 ft | 476 kts | 215° |
| 2026-04-16 17:44 | 13.35642 | -23.32145 | 37836 ft | 476 kts | 215° |
| 2026-04-16 17:44 | 13.29803 | -23.35388 | 37845 ft | 476 kts | 215° |
| 2026-04-16 17:45 | 13.23963 | -23.38629 | 37843 ft | 476 kts | 215° |
| 2026-04-16 17:45 | 13.18147 | -23.41855 | 37834 ft | 477 kts | 215° |
| 2026-04-16 17:46 | 13.12303 | -23.45094 | 37836 ft | 477 kts | 215° |
| 2026-04-16 17:46 | 13.06480 | -23.48321 | 37836 ft | 477 kts | 215° |
| 2026-04-16 17:47 | 13.00624 | -23.51563 | 37838 ft | 477 kts | 215° |
| 2026-04-16 17:47 | 12.94774 | -23.54801 | 37840 ft | 477 kts | 215° |
| 2026-04-16 17:48 | 12.88951 | -23.58022 | 37838 ft | 477 kts | 215° |
| 2026-04-16 17:48 | 12.83101 | -23.61256 | 37831 ft | 477 kts | 215° |
| 2026-04-16 17:49 | 12.77266 | -23.64481 | 37843 ft | 478 kts | 214° |
| 2026-04-16 17:49 | 12.71405 | -23.67718 | 37831 ft | 478 kts | 214° |
| 2026-04-16 17:50 | 12.65562 | -23.70943 | 37835 ft | 478 kts | 214° |
| 2026-04-16 17:50 | 12.59682 | -23.74187 | 37847 ft | 478 kts | 214° |
| 2026-04-16 17:51 | 12.53845 | -23.77406 | 37844 ft | 478 kts | 214° |
| 2026-04-16 17:51 | 12.47968 | -23.80644 | 37842 ft | 478 kts | 214° |
| 2026-04-16 17:52 | 12.42136 | -23.83857 | 37842 ft | 479 kts | 214° |
| 2026-04-16 17:52 | 12.36239 | -23.87103 | 37841 ft | 479 kts | 214° |
| 2026-04-16 17:53 | 12.30392 | -23.90321 | 37839 ft | 479 kts | 214° |
| 2026-04-16 17:53 | 12.24507 | -23.93557 | 37840 ft | 479 kts | 214° |
| 2026-04-16 17:54 | 12.18657 | -23.96773 | 37839 ft | 480 kts | 214° |
| 2026-04-16 17:54 | 12.12760 | -24.00013 | 37842 ft | 479 kts | 214° |
| 2026-04-16 17:55 | 12.06922 | -24.03219 | 37833 ft | 479 kts | 214° |
| 2026-04-16 17:55 | 12.01040 | -24.06447 | 37834 ft | 479 kts | 214° |
| 2026-04-16 17:56 | 11.95155 | -24.09676 | 37837 ft | 479 kts | 214° |
| 2026-04-16 17:56 | 11.86367 | -24.14494 | 37835 ft | 478 kts | 214° |
| 2026-04-16 17:57 | 11.80521 | -24.17697 | 37834 ft | 478 kts | 214° |
| 2026-04-16 17:57 | 11.74651 | -24.20911 | 37837 ft | 477 kts | 214° |
| 2026-04-16 17:58 | 11.68824 | -24.24102 | 37832 ft | 478 kts | 214° |
| 2026-04-16 17:58 | 11.62945 | -24.27317 | 37831 ft | 478 kts | 214° |
| 2026-04-16 17:59 | 11.57111 | -24.30508 | 37832 ft | 477 kts | 214° |
| 2026-04-16 17:59 | 11.51240 | -24.33717 | 37832 ft | 477 kts | 214° |
| 2026-04-16 18:00 | 11.45412 | -24.36901 | 37832 ft | 477 kts | 214° |
| 2026-04-16 18:00 | 11.40529 | -24.39568 | 37836 ft | 478 kts | 213° |
| 2026-04-16 18:01 | 11.33677 | -24.43308 | 37836 ft | 478 kts | 213° |
| 2026-04-16 18:01 | 11.28788 | -24.45975 | 37835 ft | 479 kts | 213° |
| 2026-04-16 18:02 | 11.22906 | -24.49183 | 37833 ft | 479 kts | 213° |
| 2026-04-16 18:02 | 11.17059 | -24.52370 | 37831 ft | 479 kts | 213° |
| 2026-04-16 18:03 | 11.11173 | -24.55577 | 37839 ft | 479 kts | 213° |
| 2026-04-16 18:03 | 11.05292 | -24.58780 | 37830 ft | 479 kts | 213° |
| 2026-04-16 18:04 | 10.99437 | -24.61967 | 37833 ft | 478 kts | 213° |
| 2026-04-16 18:04 | 10.93542 | -24.65175 | 37836 ft | 479 kts | 213° |
| 2026-04-16 18:05 | 10.87683 | -24.68361 | 37831 ft | 480 kts | 213° |
| 2026-04-16 18:05 | 10.81816 | -24.71551 | 37833 ft | 480 kts | 213° |
| 2026-04-16 18:06 | 10.75915 | -24.74757 | 37834 ft | 480 kts | 213° |
| 2026-04-16 18:06 | 10.70036 | -24.77949 | 37835 ft | 479 kts | 213° |
| 2026-04-16 18:07 | 10.64158 | -24.81141 | 37825 ft | 477 kts | 213° |
| 2026-04-16 18:07 | 10.58317 | -24.84311 | 37834 ft | 477 kts | 213° |
| 2026-04-16 18:08 | 10.52442 | -24.87497 | 37828 ft | 479 kts | 213° |
| 2026-04-16 18:08 | 10.46574 | -24.90679 | 37833 ft | 479 kts | 213° |
| 2026-04-16 18:09 | 10.40679 | -24.93873 | 37833 ft | 479 kts | 213° |
| 2026-04-16 18:09 | 10.34776 | -24.97071 | 37836 ft | 480 kts | 213° |
| 2026-04-16 18:10 | 10.28907 | -25.00249 | 37835 ft | 480 kts | 213° |
| 2026-04-16 18:10 | 10.23002 | -25.03445 | 37833 ft | 480 kts | 213° |
| 2026-04-16 18:11 | 10.17100 | -25.06638 | 37836 ft | 479 kts | 213° |
| 2026-04-16 18:11 | 10.11258 | -25.09797 | 37828 ft | 479 kts | 213° |
| 2026-04-16 18:12 | 10.05354 | -25.12989 | 37822 ft | 479 kts | 213° |
| 2026-04-16 18:12 | 9.99493 | -25.16156 | 37826 ft | 479 kts | 213° |
| 2026-04-16 18:13 | 9.93583 | -25.19348 | 37826 ft | 479 kts | 213° |
| 2026-04-16 18:13 | 9.87723 | -25.22511 | 37828 ft | 479 kts | 212° |
| 2026-04-16 18:14 | 9.81822 | -25.25691 | 37825 ft | 479 kts | 212° |
| 2026-04-16 18:14 | 9.75932 | -25.28866 | 37827 ft | 479 kts | 212° |
| 2026-04-16 18:15 | 9.70063 | -25.32027 | 37825 ft | 479 kts | 212° |
| 2026-04-16 18:15 | 9.64157 | -25.35207 | 37824 ft | 480 kts | 212° |
| 2026-04-16 18:16 | 9.58285 | -25.38368 | 37819 ft | 480 kts | 212° |
| 2026-04-16 18:16 | 9.52368 | -25.41552 | 37820 ft | 480 kts | 212° |
| 2026-04-16 18:17 | 9.46501 | -25.44708 | 37824 ft | 480 kts | 212° |
| 2026-04-16 18:17 | 9.40590 | -25.47885 | 37823 ft | 480 kts | 212° |
| 2026-04-16 18:18 | 9.34714 | -25.51044 | 37819 ft | 480 kts | 212° |
| 2026-04-16 18:18 | 9.28789 | -25.54226 | 37822 ft | 480 kts | 212° |
| 2026-04-16 18:19 | 9.22919 | -25.57378 | 37821 ft | 480 kts | 212° |
| 2026-04-16 18:19 | 9.17005 | -25.60553 | 37822 ft | 480 kts | 212° |
| 2026-04-16 18:20 | 9.11097 | -25.63724 | 37819 ft | 480 kts | 212° |
| 2026-04-16 18:20 | 9.05181 | -25.66897 | 37820 ft | 480 kts | 212° |
| 2026-04-16 18:21 | 8.99310 | -25.70045 | 37823 ft | 480 kts | 212° |
| 2026-04-16 18:21 | 8.93384 | -25.73222 | 37822 ft | 481 kts | 212° |
| 2026-04-16 18:22 | 8.87500 | -25.76373 | 37822 ft | 480 kts | 212° |
| 2026-04-16 18:22 | 8.81586 | -25.79542 | 37822 ft | 480 kts | 212° |
| 2026-04-16 18:23 | 8.75707 | -25.82689 | 37822 ft | 479 kts | 212° |
| 2026-04-16 18:23 | 8.69790 | -25.85857 | 37822 ft | 480 kts | 212° |
| 2026-04-16 18:24 | 8.63908 | -25.89003 | 37821 ft | 480 kts | 212° |
| 2026-04-16 18:24 | 8.57990 | -25.92169 | 37817 ft | 480 kts | 212° |
| 2026-04-16 18:25 | 8.52108 | -25.95314 | 37820 ft | 480 kts | 212° |
| 2026-04-16 18:25 | 8.46182 | -25.98481 | 37822 ft | 481 kts | 212° |
| 2026-04-16 18:26 | 8.40291 | -26.01628 | 37825 ft | 481 kts | 212° |
| 2026-04-16 18:26 | 8.34361 | -26.04795 | 37827 ft | 481 kts | 212° |
| 2026-04-16 18:27 | 8.28439 | -26.07958 | 37823 ft | 480 kts | 212° |
| 2026-04-16 18:27 | 8.22564 | -26.11096 | 37822 ft | 480 kts | 212° |
| 2026-04-16 18:28 | 8.16646 | -26.14255 | 37816 ft | 480 kts | 212° |
| 2026-04-16 18:28 | 8.10755 | -26.17399 | 37822 ft | 481 kts | 212° |
| 2026-04-16 18:29 | 8.04839 | -26.20555 | 37820 ft | 480 kts | 212° |
| 2026-04-16 18:29 | 7.98917 | -26.23714 | 37822 ft | 481 kts | 212° |
| 2026-04-16 18:30 | 7.92988 | -26.26874 | 37823 ft | 481 kts | 212° |
| 2026-04-16 18:30 | 7.87090 | -26.30018 | 37822 ft | 481 kts | 212° |
| 2026-04-16 18:31 | 7.81168 | -26.33173 | 37818 ft | 480 kts | 212° |
| 2026-04-16 18:31 | 7.75250 | -26.36325 | 37816 ft | 480 kts | 212° |
| 2026-04-16 18:32 | 7.69371 | -26.39455 | 37818 ft | 480 kts | 212° |
| 2026-04-16 18:32 | 7.63467 | -26.42598 | 37820 ft | 481 kts | 212° |
| 2026-04-16 18:33 | 7.57537 | -26.45753 | 37814 ft | 481 kts | 212° |
| 2026-04-16 18:33 | 7.51647 | -26.48886 | 37815 ft | 480 kts | 212° |
| 2026-04-16 18:34 | 7.45716 | -26.52040 | 37814 ft | 480 kts | 212° |
| 2026-04-16 18:34 | 7.39824 | -26.55172 | 37816 ft | 481 kts | 212° |
| 2026-04-16 18:35 | 7.33881 | -26.58331 | 37819 ft | 482 kts | 212° |
| 2026-04-16 18:35 | 7.27949 | -26.61483 | 37822 ft | 482 kts | 212° |
| 2026-04-16 18:36 | 7.22010 | -26.64637 | 37820 ft | 482 kts | 212° |
| 2026-04-16 18:36 | 7.16110 | -26.67770 | 37821 ft | 483 kts | 212° |
| 2026-04-16 18:37 | 7.10151 | -26.70933 | 37817 ft | 482 kts | 212° |
| 2026-04-16 18:37 | 7.04239 | -26.74070 | 37819 ft | 482 kts | 212° |
| 2026-04-16 18:38 | 6.98300 | -26.77221 | 37812 ft | 482 kts | 212° |
| 2026-04-16 18:38 | 6.92350 | -26.80376 | 37815 ft | 482 kts | 212° |
| 2026-04-16 18:39 | 6.86440 | -26.83510 | 37814 ft | 481 kts | 212° |
| 2026-04-16 18:39 | 6.80503 | -26.86657 | 37811 ft | 481 kts | 212° |
| 2026-04-16 18:40 | 6.74611 | -26.89779 | 37810 ft | 481 kts | 212° |
| 2026-04-16 18:40 | 6.68671 | -26.92926 | 37810 ft | 482 kts | 212° |
| 2026-04-16 18:41 | 6.62757 | -26.96058 | 37810 ft | 481 kts | 212° |
| 2026-04-16 18:41 | 6.56822 | -26.99200 | 37806 ft | 482 kts | 212° |
| 2026-04-16 18:42 | 6.50899 | -27.02336 | 37810 ft | 482 kts | 211° |
| 2026-04-16 18:42 | 6.44946 | -27.05485 | 37810 ft | 482 kts | 211° |
| 2026-04-16 18:43 | 6.39026 | -27.08616 | 37806 ft | 482 kts | 211° |
| 2026-04-16 18:43 | 6.33097 | -27.11749 | 37807 ft | 481 kts | 211° |
| 2026-04-16 18:44 | 6.27183 | -27.14874 | 37807 ft | 482 kts | 211° |
| 2026-04-16 18:44 | 6.21237 | -27.18015 | 37808 ft | 482 kts | 211° |
| 2026-04-16 18:45 | 6.15280 | -27.21161 | 37808 ft | 483 kts | 211° |
| 2026-04-16 18:45 | 6.09338 | -27.24298 | 37807 ft | 483 kts | 211° |
| 2026-04-16 18:46 | 6.03397 | -27.27434 | 37811 ft | 483 kts | 211° |
| 2026-04-16 18:46 | 5.97473 | -27.30560 | 37812 ft | 484 kts | 211° |
| 2026-04-16 18:47 | 5.91478 | -27.33722 | 37817 ft | 484 kts | 211° |
| 2026-04-16 18:47 | 5.85553 | -27.36847 | 37812 ft | 483 kts | 211° |
| 2026-04-16 18:48 | 5.79592 | -27.39990 | 37813 ft | 483 kts | 211° |
| 2026-04-16 18:48 | 5.73659 | -27.43118 | 37808 ft | 482 kts | 211° |
| 2026-04-16 18:49 | 5.67726 | -27.46245 | 37802 ft | 482 kts | 211° |
| 2026-04-16 18:49 | 5.61776 | -27.49380 | 37795 ft | 482 kts | 211° |
| 2026-04-16 18:50 | 5.56840 | -27.51981 | 37799 ft | 482 kts | 211° |
| 2026-04-16 18:50 | 5.49926 | -27.55623 | 37800 ft | 483 kts | 211° |
| 2026-04-16 18:51 | 5.44938 | -27.58249 | 37801 ft | 484 kts | 211° |
| 2026-04-16 18:51 | 5.39004 | -27.61373 | 37802 ft | 484 kts | 211° |
| 2026-04-16 18:52 | 5.33040 | -27.64512 | 37805 ft | 483 kts | 211° |
| 2026-04-16 18:52 | 5.27080 | -27.67649 | 37801 ft | 483 kts | 211° |
| 2026-04-16 18:53 | 5.21137 | -27.70776 | 37799 ft | 484 kts | 210° |
| 2026-04-16 18:53 | 5.15155 | -27.73921 | 37799 ft | 484 kts | 210° |
| 2026-04-16 18:54 | 5.09220 | -27.77043 | 37798 ft | 484 kts | 210° |
| 2026-04-16 18:54 | 5.03251 | -27.80181 | 37799 ft | 484 kts | 210° |
| 2026-04-16 18:55 | 4.97288 | -27.83316 | 37798 ft | 484 kts | 210° |
| 2026-04-16 18:55 | 4.91342 | -27.86441 | 37796 ft | 484 kts | 210° |
| 2026-04-16 18:56 | 4.85344 | -27.89593 | 37800 ft | 485 kts | 210° |
| 2026-04-16 18:56 | 4.79382 | -27.92725 | 37804 ft | 486 kts | 210° |
| 2026-04-16 18:57 | 4.73380 | -27.95878 | 37805 ft | 485 kts | 210° |
| 2026-04-16 18:58 | 4.64438 | -28.00573 | 37802 ft | 484 kts | 210° |
| 2026-04-16 18:58 | 4.58451 | -28.03716 | 37802 ft | 485 kts | 210° |
| 2026-04-16 18:59 | 4.52494 | -28.06843 | 37802 ft | 485 kts | 210° |
| 2026-04-16 18:59 | 4.46501 | -28.09988 | 37800 ft | 485 kts | 210° |
| 2026-04-16 19:00 | 4.40533 | -28.13120 | 37798 ft | 484 kts | 210° |
| 2026-04-16 19:00 | 4.34587 | -28.16239 | 37793 ft | 483 kts | 210° |
| 2026-04-16 19:01 | 4.28615 | -28.19371 | 37791 ft | 483 kts | 209° |
| 2026-04-16 19:01 | 4.22689 | -28.22479 | 37793 ft | 483 kts | 209° |
| 2026-04-16 19:02 | 4.16723 | -28.25607 | 37789 ft | 482 kts | 209° |
| 2026-04-16 19:02 | 4.10802 | -28.28711 | 37789 ft | 483 kts | 209° |
| 2026-04-16 19:03 | 4.04823 | -28.31845 | 37794 ft | 484 kts | 209° |
| 2026-04-16 19:03 | 3.98835 | -28.34983 | 37790 ft | 484 kts | 209° |
| 2026-04-16 19:04 | 3.92888 | -28.38099 | 37790 ft | 484 kts | 209° |
| 2026-04-16 19:04 | 3.86938 | -28.41216 | 37792 ft | 484 kts | 209° |
| 2026-04-16 19:05 | 3.80952 | -28.44351 | 37795 ft | 485 kts | 209° |
| 2026-04-16 19:05 | 3.74953 | -28.47493 | 37803 ft | 487 kts | 209° |
| 2026-04-16 19:06 | 3.68942 | -28.50641 | 37804 ft | 487 kts | 209° |
| 2026-04-16 19:06 | 3.62966 | -28.53769 | 37800 ft | 487 kts | 209° |
| 2026-04-16 19:07 | 3.56950 | -28.56919 | 37801 ft | 487 kts | 209° |
| 2026-04-16 19:07 | 3.50969 | -28.60049 | 37804 ft | 487 kts | 208° |
| 2026-04-16 19:08 | 3.44959 | -28.63194 | 37801 ft | 486 kts | 208° |
| 2026-04-16 19:08 | 3.38983 | -28.66321 | 37801 ft | 486 kts | 208° |
| 2026-04-16 19:09 | 3.32982 | -28.69460 | 37803 ft | 485 kts | 208° |
| 2026-04-16 19:09 | 3.26982 | -28.72600 | 37798 ft | 485 kts | 208° |
| 2026-04-16 19:10 | 3.21032 | -28.75711 | 37800 ft | 485 kts | 208° |
| 2026-04-16 19:10 | 3.15038 | -28.78846 | 37797 ft | 484 kts | 208° |
| 2026-04-16 19:11 | 3.09097 | -28.81957 | 37799 ft | 485 kts | 208° |
| 2026-04-16 19:11 | 3.03108 | -28.85105 | 37795 ft | 484 kts | 208° |
| 2026-04-16 19:12 | 2.97166 | -28.88220 | 37797 ft | 483 kts | 208° |
| 2026-04-16 19:12 | 2.91189 | -28.91357 | 37794 ft | 484 kts | 208° |
| 2026-04-16 19:13 | 2.85253 | -28.94470 | 37796 ft | 484 kts | 208° |
| 2026-04-16 19:13 | 2.79287 | -28.97601 | 37795 ft | 483 kts | 208° |
| 2026-04-16 19:14 | 2.73331 | -29.00724 | 37798 ft | 482 kts | 208° |
| 2026-04-16 19:14 | 2.67418 | -29.03825 | 37797 ft | 482 kts | 208° |
| 2026-04-16 19:15 | 2.61469 | -29.06945 | 37797 ft | 481 kts | 208° |
| 2026-04-16 19:15 | 2.55561 | -29.10043 | 37798 ft | 481 kts | 208° |
| 2026-04-16 19:16 | 2.49608 | -29.13164 | 37800 ft | 482 kts | 208° |
| 2026-04-16 19:16 | 2.43692 | -29.16264 | 37799 ft | 482 kts | 207° |
| 2026-04-16 19:17 | 2.37723 | -29.19393 | 37799 ft | 483 kts | 207° |
| 2026-04-16 19:17 | 2.31793 | -29.22501 | 37800 ft | 484 kts | 207° |
| 2026-04-16 19:18 | 2.25809 | -29.25637 | 37798 ft | 485 kts | 207° |
| 2026-04-16 19:18 | 2.19859 | -29.28755 | 37797 ft | 485 kts | 207° |
| 2026-04-16 19:19 | 2.13851 | -29.31903 | 37800 ft | 487 kts | 207° |
| 2026-04-16 19:19 | 2.07838 | -29.35053 | 37799 ft | 487 kts | 207° |
| 2026-04-16 19:20 | 2.01858 | -29.38186 | 37802 ft | 488 kts | 207° |
| 2026-04-16 19:20 | 1.95832 | -29.41342 | 37801 ft | 488 kts | 207° |
| 2026-04-16 19:21 | 1.89799 | -29.44502 | 37798 ft | 489 kts | 207° |
| 2026-04-16 19:21 | 1.83801 | -29.47644 | 37794 ft | 489 kts | 207° |
| 2026-04-16 19:22 | 1.77758 | -29.50808 | 37798 ft | 489 kts | 207° |
| 2026-04-16 19:22 | 1.71709 | -29.53976 | 37795 ft | 490 kts | 207° |
| 2026-04-16 19:23 | 1.65678 | -29.57134 | 37795 ft | 493 kts | 207° |
| 2026-04-16 19:23 | 1.59602 | -29.60315 | 37799 ft | 494 kts | 207° |
| 2026-04-16 19:24 | 1.53502 | -29.63509 | 37798 ft | 495 kts | 207° |
| 2026-04-16 19:24 | 1.47417 | -29.66694 | 37798 ft | 496 kts | 207° |
| 2026-04-16 19:25 | 1.41274 | -29.69910 | 37801 ft | 497 kts | 207° |
| 2026-04-16 19:25 | 1.35163 | -29.73092 | 37799 ft | 496 kts | 207° |
| 2026-04-16 19:26 | 1.29024 | -29.76256 | 37793 ft | 495 kts | 207° |
| 2026-04-16 19:26 | 1.22931 | -29.79418 | 37790 ft | 494 kts | 207° |
| 2026-04-16 19:27 | 1.16800 | -29.82585 | 37792 ft | 494 kts | 207° |
| 2026-04-16 19:27 | 1.10724 | -29.85732 | 37790 ft | 493 kts | 207° |
| 2026-04-16 19:28 | 1.04607 | -29.88896 | 37790 ft | 493 kts | 207° |
| 2026-04-16 19:28 | 0.98547 | -29.92032 | 37794 ft | 492 kts | 207° |
| 2026-04-16 19:29 | 0.92466 | -29.95178 | 37793 ft | 491 kts | 208° |
| 2026-04-16 19:29 | 0.86431 | -29.98301 | 37790 ft | 489 kts | 208° |
| 2026-04-16 19:30 | 0.80409 | -30.01417 | 37791 ft | 487 kts | 208° |
| 2026-04-16 19:30 | 0.74374 | -30.04539 | 37793 ft | 487 kts | 208° |
| 2026-04-16 19:31 | 0.68349 | -30.07656 | 37792 ft | 487 kts | 208° |
| 2026-04-16 19:31 | 0.62365 | -30.10751 | 37794 ft | 487 kts | 208° |
| 2026-04-16 19:32 | 0.56327 | -30.13875 | 37794 ft | 488 kts | 208° |
| 2026-04-16 19:32 | 0.50288 | -30.16999 | 37795 ft | 488 kts | 208° |
| 2026-04-16 19:33 | 0.44244 | -30.20125 | 37798 ft | 488 kts | 208° |
| 2026-04-16 19:33 | 0.38236 | -30.23233 | 37792 ft | 489 kts | 207° |
| 2026-04-16 19:34 | 0.32186 | -30.26362 | 37794 ft | 489 kts | 207° |
| 2026-04-16 19:34 | 0.26169 | -30.29475 | 37794 ft | 488 kts | 207° |
| 2026-04-16 19:35 | 0.20125 | -30.32600 | 37796 ft | 488 kts | 207° |
| 2026-04-16 19:35 | 0.14132 | -30.35698 | 37791 ft | 486 kts | 207° |
| 2026-04-16 19:36 | 0.08111 | -30.38811 | 37788 ft | 486 kts | 207° |
| 2026-04-16 19:36 | 0.02112 | -30.41913 | 37790 ft | 487 kts | 207° |
| 2026-04-16 19:37 | -0.03937 | -30.45040 | 37790 ft | 488 kts | 207° |
| 2026-04-16 19:37 | -0.09935 | -30.48141 | 37792 ft | 488 kts | 207° |
| 2026-04-16 19:38 | -0.15978 | -30.51265 | 37793 ft | 488 kts | 207° |
| 2026-04-16 19:38 | -0.21004 | -30.53863 | 37791 ft | 488 kts | 207° |
| 2026-04-16 19:39 | -0.27009 | -30.56968 | 37787 ft | 487 kts | 207° |
| 2026-04-16 19:39 | -0.34025 | -30.60595 | 37785 ft | 487 kts | 207° |
| 2026-04-16 19:40 | -0.39076 | -30.63206 | 37784 ft | 487 kts | 207° |
| 2026-04-16 19:40 | -0.45079 | -30.66310 | 37785 ft | 488 kts | 207° |
| 2026-04-16 19:41 | -0.51130 | -30.69438 | 37789 ft | 489 kts | 208° |
| 2026-04-16 19:41 | -0.57156 | -30.72554 | 37790 ft | 491 kts | 208° |
| 2026-04-16 19:42 | -0.63239 | -30.75699 | 37792 ft | 492 kts | 208° |
| 2026-04-16 19:42 | -0.69295 | -30.78830 | 37792 ft | 492 kts | 208° |
| 2026-04-16 19:43 | -0.75363 | -30.81968 | 37791 ft | 492 kts | 208° |
| 2026-04-16 19:43 | -0.81450 | -30.85115 | 37791 ft | 492 kts | 208° |
| 2026-04-16 19:44 | -0.87555 | -30.88272 | 37792 ft | 493 kts | 208° |
| 2026-04-16 19:44 | -0.93625 | -30.91411 | 37796 ft | 492 kts | 208° |
| 2026-04-16 19:45 | -0.99717 | -30.94556 | 37793 ft | 492 kts | 208° |
| 2026-04-16 19:45 | -1.05810 | -30.97701 | 37793 ft | 491 kts | 208° |
| 2026-04-16 19:46 | -1.11830 | -31.00809 | 37793 ft | 489 kts | 208° |
| 2026-04-16 19:46 | -1.17875 | -31.03929 | 37791 ft | 489 kts | 208° |
| 2026-04-16 19:47 | -1.23935 | -31.07057 | 37794 ft | 489 kts | 208° |
| 2026-04-16 19:47 | -1.29988 | -31.10182 | 37796 ft | 488 kts | 208° |
| 2026-04-16 19:48 | -1.36024 | -31.13298 | 37796 ft | 488 kts | 208° |
| 2026-04-16 19:48 | -1.42020 | -31.16394 | 37794 ft | 488 kts | 208° |
| 2026-04-16 19:49 | -1.48054 | -31.19510 | 37794 ft | 488 kts | 208° |
| 2026-04-16 19:49 | -1.54090 | -31.22627 | 37797 ft | 488 kts | 208° |
| 2026-04-16 19:50 | -1.60120 | -31.25740 | 37793 ft | 488 kts | 208° |
| 2026-04-16 19:50 | -1.66158 | -31.28859 | 37795 ft | 489 kts | 208° |
| 2026-04-16 19:51 | -1.72205 | -31.31982 | 37796 ft | 489 kts | 208° |
| 2026-04-16 19:51 | -1.78243 | -31.35101 | 37795 ft | 488 kts | 208° |
| 2026-04-16 19:52 | -1.84254 | -31.38206 | 37796 ft | 489 kts | 208° |
| 2026-04-16 19:52 | -1.90307 | -31.41332 | 37798 ft | 489 kts | 208° |
| 2026-04-16 19:53 | -1.96364 | -31.44462 | 37797 ft | 489 kts | 208° |
| 2026-04-16 19:53 | -2.02395 | -31.47578 | 37796 ft | 488 kts | 208° |
| 2026-04-16 19:54 | -2.08429 | -31.50696 | 37793 ft | 488 kts | 208° |
| 2026-04-16 19:54 | -2.14431 | -31.53797 | 37799 ft | 488 kts | 208° |
| 2026-04-16 19:55 | -2.20461 | -31.56914 | 37800 ft | 487 kts | 208° |
| 2026-04-16 19:55 | -2.26504 | -31.60037 | 37797 ft | 487 kts | 208° |
| 2026-04-16 19:56 | -2.32489 | -31.63131 | 37799 ft | 487 kts | 208° |
| 2026-04-16 19:56 | -2.38514 | -31.66246 | 37797 ft | 487 kts | 208° |
| 2026-04-16 19:57 | -2.44529 | -31.69356 | 37798 ft | 486 kts | 208° |
| 2026-04-16 19:57 | -2.50541 | -31.72464 | 37797 ft | 486 kts | 208° |
| 2026-04-16 19:58 | -2.56555 | -31.75574 | 37795 ft | 486 kts | 208° |
| 2026-04-16 19:58 | -2.62523 | -31.78661 | 37798 ft | 485 kts | 208° |
| 2026-04-16 19:59 | -2.68521 | -31.81763 | 37798 ft | 485 kts | 208° |
| 2026-04-16 19:59 | -2.74533 | -31.84873 | 37803 ft | 486 kts | 208° |
| 2026-04-16 20:00 | -2.83552 | -31.89539 | 37800 ft | 486 kts | 208° |
| 2026-04-16 20:00 | -2.89556 | -31.92646 | 37803 ft | 486 kts | 208° |
| 2026-04-16 20:01 | -2.95553 | -31.95749 | 37801 ft | 485 kts | 208° |
| 2026-04-16 20:01 | -3.01552 | -31.98854 | 37798 ft | 485 kts | 208° |
| 2026-04-16 20:02 | -3.07550 | -32.01959 | 37802 ft | 486 kts | 208° |
| 2026-04-16 20:02 | -3.13575 | -32.05078 | 37803 ft | 487 kts | 208° |
| 2026-04-16 20:03 | -3.19571 | -32.08182 | 37803 ft | 487 kts | 208° |
| 2026-04-16 20:03 | -3.25589 | -32.11298 | 37802 ft | 487 kts | 208° |
| 2026-04-16 20:04 | -3.31597 | -32.14440 | 37799 ft | 486 kts | 209° |
| 2026-04-16 20:04 | -3.37564 | -32.17607 | 37804 ft | 485 kts | 208° |
| 2026-04-16 20:05 | -3.43544 | -32.20750 | 37801 ft | 485 kts | 209° |
| 2026-04-16 20:05 | -3.49491 | -32.23895 | 37802 ft | 486 kts | 209° |
| 2026-04-16 20:06 | -3.55489 | -32.27056 | 37802 ft | 486 kts | 209° |
| 2026-04-16 20:06 | -3.61473 | -32.30216 | 37803 ft | 485 kts | 209° |
| 2026-04-16 20:07 | -3.67418 | -32.33353 | 37802 ft | 486 kts | 209° |
| 2026-04-16 20:07 | -3.73401 | -32.36512 | 37798 ft | 487 kts | 209° |
| 2026-04-16 20:08 | -3.79406 | -32.39683 | 37796 ft | 488 kts | 209° |
| 2026-04-16 20:08 | -3.85431 | -32.42864 | 37797 ft | 489 kts | 209° |
| 2026-04-16 20:09 | -3.91468 | -32.45979 | 37794 ft | 488 kts | 208° |
| 2026-04-16 20:09 | -3.97469 | -32.49055 | 37792 ft | 486 kts | 208° |
| 2026-04-16 20:10 | -4.03488 | -32.52161 | 37798 ft | 486 kts | 208° |
| 2026-04-16 20:10 | -4.09514 | -32.55255 | 37800 ft | 487 kts | 208° |
| 2026-04-16 20:11 | -4.15541 | -32.58362 | 37805 ft | 487 kts | 208° |
| 2026-04-16 20:11 | -4.21587 | -32.61471 | 37812 ft | 488 kts | 208° |
| 2026-04-16 20:12 | -4.27603 | -32.64571 | 37809 ft | 487 kts | 208° |
| 2026-04-16 20:12 | -4.33638 | -32.67678 | 37808 ft | 487 kts | 208° |
| 2026-04-16 20:13 | -4.39680 | -32.70791 | 37810 ft | 488 kts | 208° |
| 2026-04-16 20:13 | -4.45696 | -32.73889 | 37811 ft | 489 kts | 208° |
| 2026-04-16 20:14 | -4.51777 | -32.77023 | 37809 ft | 491 kts | 208° |
| 2026-04-16 20:14 | -4.57887 | -32.80171 | 37809 ft | 493 kts | 208° |
| 2026-04-16 20:15 | -4.63966 | -32.83301 | 37812 ft | 494 kts | 208° |
| 2026-04-16 20:15 | -4.70101 | -32.86448 | 37806 ft | 493 kts | 208° |
| 2026-04-16 20:16 | -4.76175 | -32.89573 | 37810 ft | 493 kts | 208° |
| 2026-04-16 20:16 | -4.82301 | -32.92720 | 37809 ft | 493 kts | 208° |
| 2026-04-16 20:17 | -4.88370 | -32.95840 | 37809 ft | 491 kts | 208° |
| 2026-04-16 20:17 | -4.94422 | -32.98953 | 37808 ft | 490 kts | 208° |
| 2026-04-16 20:18 | -5.00499 | -33.02078 | 37807 ft | 490 kts | 208° |
| 2026-04-16 20:18 | -5.06580 | -33.05206 | 37812 ft | 489 kts | 208° |
| 2026-04-16 20:19 | -5.12595 | -33.08301 | 37809 ft | 487 kts | 208° |
| 2026-04-16 20:19 | -5.18640 | -33.11412 | 37804 ft | 487 kts | 208° |
| 2026-04-16 20:20 | -5.24655 | -33.14509 | 37805 ft | 488 kts | 208° |
| 2026-04-16 20:20 | -5.30706 | -33.17624 | 37808 ft | 488 kts | 208° |
| 2026-04-16 20:21 | -5.36727 | -33.20725 | 37813 ft | 488 kts | 208° |
| 2026-04-16 20:21 | -5.42761 | -33.23833 | 37816 ft | 488 kts | 208° |
| 2026-04-16 20:22 | -5.48827 | -33.26958 | 37817 ft | 488 kts | 208° |
| 2026-04-16 20:22 | -5.54852 | -33.30063 | 37815 ft | 488 kts | 209° |
| 2026-04-16 20:23 | -5.60860 | -33.33160 | 37813 ft | 487 kts | 209° |
| 2026-04-16 20:23 | -5.66905 | -33.36276 | 37811 ft | 488 kts | 209° |
| 2026-04-16 20:24 | -5.72964 | -33.39401 | 37812 ft | 487 kts | 209° |
| 2026-04-16 20:24 | -5.78956 | -33.42492 | 37812 ft | 486 kts | 209° |
| 2026-04-16 20:25 | -5.84989 | -33.45605 | 37813 ft | 486 kts | 209° |
| 2026-04-16 20:25 | -5.90986 | -33.48700 | 37820 ft | 487 kts | 209° |
| 2026-04-16 20:26 | -5.97025 | -33.51817 | 37817 ft | 486 kts | 209° |
| 2026-04-16 20:26 | -6.02042 | -33.54407 | 37817 ft | 486 kts | 209° |
| 2026-04-16 20:27 | -6.08022 | -33.57495 | 37816 ft | 485 kts | 209° |
| 2026-04-16 20:27 | -6.15018 | -33.61109 | 37817 ft | 485 kts | 209° |
| 2026-04-16 20:28 | -6.20021 | -33.63694 | 37819 ft | 485 kts | 209° |
| 2026-04-16 20:28 | -6.26034 | -33.66802 | 37821 ft | 485 kts | 209° |
| 2026-04-16 20:29 | -6.32002 | -33.69887 | 37822 ft | 485 kts | 209° |
| 2026-04-16 20:29 | -6.38036 | -33.73008 | 37823 ft | 486 kts | 209° |
| 2026-04-16 20:30 | -6.44015 | -33.76100 | 37823 ft | 485 kts | 209° |
| 2026-04-16 20:30 | -6.50037 | -33.79216 | 37821 ft | 485 kts | 209° |
| 2026-04-16 20:31 | -6.56032 | -33.82318 | 37821 ft | 486 kts | 210° |
| 2026-04-16 20:31 | -6.62023 | -33.85419 | 37825 ft | 486 kts | 210° |
| 2026-04-16 20:32 | -6.68038 | -33.88534 | 37822 ft | 485 kts | 210° |
| 2026-04-16 20:32 | -6.74016 | -33.91630 | 37821 ft | 485 kts | 210° |
| 2026-04-16 20:33 | -6.80026 | -33.94744 | 37821 ft | 484 kts | 210° |
| 2026-04-16 20:33 | -6.85996 | -33.97838 | 37821 ft | 485 kts | 210° |
| 2026-04-16 20:34 | -6.91997 | -34.00948 | 37824 ft | 484 kts | 210° |
| 2026-04-16 20:34 | -6.98004 | -34.04064 | 37823 ft | 484 kts | 210° |
| 2026-04-16 20:35 | -7.03976 | -34.07161 | 37820 ft | 485 kts | 210° |
| 2026-04-16 20:35 | -7.09974 | -34.10273 | 37817 ft | 484 kts | 210° |
| 2026-04-16 20:36 | -7.15939 | -34.13368 | 37824 ft | 484 kts | 210° |
| 2026-04-16 20:36 | -7.21938 | -34.16483 | 37825 ft | 484 kts | 210° |
| 2026-04-16 20:37 | -7.27903 | -34.19580 | 37825 ft | 484 kts | 210° |
| 2026-04-16 20:37 | -7.33912 | -34.22702 | 37827 ft | 484 kts | 210° |
| 2026-04-16 20:38 | -7.39880 | -34.25802 | 37826 ft | 484 kts | 210° |
| 2026-04-16 20:38 | -7.45855 | -34.28908 | 37824 ft | 484 kts | 210° |
| 2026-04-16 20:39 | -7.51863 | -34.32032 | 37827 ft | 484 kts | 210° |
| 2026-04-16 20:39 | -7.57824 | -34.35132 | 37826 ft | 484 kts | 210° |
| 2026-04-16 20:40 | -7.63828 | -34.38256 | 37828 ft | 484 kts | 210° |
| 2026-04-16 20:40 | -7.69798 | -34.41363 | 37828 ft | 484 kts | 210° |
| 2026-04-16 20:41 | -7.75767 | -34.44470 | 37832 ft | 484 kts | 210° |
| 2026-04-16 20:41 | -7.81716 | -34.47672 | 37831 ft | 484 kts | 212° |
| 2026-04-16 20:42 | -7.87666 | -34.50900 | 37830 ft | 484 kts | 211° |
| 2026-04-16 20:42 | -7.93593 | -34.54090 | 37828 ft | 484 kts | 211° |
| 2026-04-16 20:43 | -7.99531 | -34.57309 | 37832 ft | 485 kts | 211° |
| 2026-04-16 20:43 | -8.05497 | -34.60528 | 37832 ft | 484 kts | 211° |
| 2026-04-16 20:44 | -8.11435 | -34.63744 | 37822 ft | 484 kts | 211° |
| 2026-04-16 20:44 | -8.17601 | -34.66467 | 37816 ft | 487 kts | 205° |
| 2026-04-16 20:45 | -8.23889 | -34.69090 | 37819 ft | 487 kts | 205° |
| 2026-04-16 20:45 | -8.30147 | -34.71678 | 37820 ft | 487 kts | 205° |
| 2026-04-16 20:46 | -8.36442 | -34.74296 | 37820 ft | 487 kts | 205° |
| 2026-04-16 20:46 | -8.42688 | -34.76887 | 37833 ft | 487 kts | 205° |
| 2026-04-16 20:47 | -8.48963 | -34.79494 | 37835 ft | 487 kts | 205° |
| 2026-04-16 20:47 | -8.55198 | -34.82085 | 37836 ft | 487 kts | 205° |
| 2026-04-16 20:48 | -8.61477 | -34.84695 | 37840 ft | 487 kts | 205° |
| 2026-04-16 20:48 | -8.67745 | -34.87302 | 37841 ft | 486 kts | 205° |
| 2026-04-16 20:49 | -8.73974 | -34.89893 | 37840 ft | 486 kts | 205° |
| 2026-04-16 20:49 | -8.80243 | -34.92501 | 37839 ft | 485 kts | 205° |
| 2026-04-16 20:50 | -8.86463 | -34.95091 | 37840 ft | 485 kts | 205° |
| 2026-04-16 20:50 | -8.92684 | -34.97681 | 37844 ft | 485 kts | 205° |
| 2026-04-16 20:51 | -8.98935 | -35.00286 | 37842 ft | 486 kts | 205° |
| 2026-04-16 20:51 | -9.05151 | -35.02888 | 37844 ft | 483 kts | 209° |
| 2026-04-16 20:52 | -9.11001 | -35.06193 | 37842 ft | 482 kts | 212° |
| 2026-04-16 20:52 | -9.16803 | -35.09535 | 37840 ft | 481 kts | 213° |
| 2026-04-16 20:53 | -9.22620 | -35.12906 | 37844 ft | 481 kts | 213° |
| 2026-04-16 20:53 | -9.28457 | -35.16278 | 37845 ft | 481 kts | 213° |
| 2026-04-16 20:54 | -9.34235 | -35.19624 | 37843 ft | 480 kts | 213° |
| 2026-04-16 20:54 | -9.40052 | -35.22991 | 37845 ft | 480 kts | 213° |
| 2026-04-16 20:55 | -9.45863 | -35.26357 | 37845 ft | 481 kts | 213° |
| 2026-04-16 20:55 | -9.51655 | -35.29712 | 37843 ft | 480 kts | 213° |
| 2026-04-16 20:56 | -9.57455 | -35.33074 | 37847 ft | 480 kts | 213° |
| 2026-04-16 20:56 | -9.63231 | -35.36423 | 37846 ft | 480 kts | 213° |
| 2026-04-16 20:57 | -9.69047 | -35.39797 | 37848 ft | 480 kts | 213° |
| 2026-04-16 20:57 | -9.74826 | -35.43151 | 37848 ft | 481 kts | 213° |
| 2026-04-16 20:58 | -9.80645 | -35.46528 | 37847 ft | 481 kts | 213° |
| 2026-04-16 20:58 | -9.86463 | -35.49907 | 37850 ft | 481 kts | 213° |
| 2026-04-16 20:59 | -9.92245 | -35.53266 | 37849 ft | 481 kts | 213° |
| 2026-04-16 20:59 | -9.98077 | -35.56657 | 37847 ft | 482 kts | 213° |
| 2026-04-16 21:00 | -10.03865 | -35.60022 | 37847 ft | 481 kts | 213° |
| 2026-04-16 21:00 | -10.09681 | -35.63406 | 37848 ft | 482 kts | 213° |
| 2026-04-16 21:01 | -10.15502 | -35.66793 | 37845 ft | 481 kts | 213° |
| 2026-04-16 21:01 | -10.18422 | -35.68494 | 37515 ft | 484 kts | 213° |
| 2026-04-16 21:01 | -10.21349 | -35.70198 | 37150 ft | 482 kts | 213° |
| 2026-04-16 21:02 | -10.24217 | -35.71867 | 36796 ft | 479 kts | 213° |
| 2026-04-16 21:02 | -10.27114 | -35.73555 | 36450 ft | 478 kts | 213° |
| 2026-04-16 21:02 | -10.30009 | -35.75243 | 36111 ft | 480 kts | 212° |
| 2026-04-16 21:03 | -10.35837 | -35.78640 | 35458 ft | 484 kts | 212° |
| 2026-04-16 21:03 | -10.38719 | -35.80319 | 35133 ft | 482 kts | 212° |
| 2026-04-16 21:03 | -10.41651 | -35.82030 | 34773 ft | 489 kts | 212° |
| 2026-04-16 21:03 | -10.44633 | -35.83771 | 34383 ft | 495 kts | 211° |
| 2026-04-16 21:04 | -10.47631 | -35.85519 | 33997 ft | 497 kts | 211° |
| 2026-04-16 21:04 | -10.50603 | -35.87251 | 33568 ft | 498 kts | 211° |
| 2026-04-16 21:04 | -10.53611 | -35.89007 | 33122 ft | 498 kts | 211° |
| 2026-04-16 21:04 | -10.56631 | -35.90771 | 32686 ft | 500 kts | 211° |
| 2026-04-16 21:05 | -10.59662 | -35.92541 | 32258 ft | 501 kts | 211° |
| 2026-04-16 21:05 | -10.62688 | -35.94308 | 31842 ft | 502 kts | 211° |
| 2026-04-16 21:05 | -10.65688 | -35.96061 | 31423 ft | 503 kts | 211° |
| 2026-04-16 21:05 | -10.68720 | -35.97834 | 31010 ft | 501 kts | 211° |
| 2026-04-16 21:06 | -10.71740 | -35.99598 | 30604 ft | 498 kts | 211° |
| 2026-04-16 21:06 | -10.74747 | -36.01355 | 30201 ft | 495 kts | 211° |
| 2026-04-16 21:06 | -10.77685 | -36.03074 | 29873 ft | 492 kts | 211° |
| 2026-04-16 21:06 | -10.80646 | -36.04807 | 29498 ft | 489 kts | 211° |
| 2026-04-16 21:07 | -10.83590 | -36.06529 | 29132 ft | 486 kts | 210° |
| 2026-04-16 21:07 | -10.86516 | -36.08241 | 28774 ft | 483 kts | 210° |
| 2026-04-16 21:07 | -10.89431 | -36.09946 | 28415 ft | 480 kts | 210° |
| 2026-04-16 21:07 | -10.92288 | -36.11620 | 28063 ft | 477 kts | 210° |
| 2026-04-16 21:08 | -10.95160 | -36.13302 | 27715 ft | 474 kts | 210° |
| 2026-04-16 21:08 | -10.98006 | -36.14969 | 27373 ft | 471 kts | 210° |
| 2026-04-16 21:08 | -11.00839 | -36.16628 | 27031 ft | 468 kts | 210° |
| 2026-04-16 21:08 | -11.03652 | -36.18277 | 26695 ft | 465 kts | 210° |
| 2026-04-16 21:09 | -11.06450 | -36.19916 | 26363 ft | 462 kts | 209° |
| 2026-04-16 21:09 | -11.09232 | -36.21547 | 26031 ft | 459 kts | 209° |
| 2026-04-16 21:09 | -11.12000 | -36.23170 | 25706 ft | 457 kts | 209° |
| 2026-04-16 21:09 | -11.14774 | -36.24656 | 25391 ft | 454 kts | 206° |
| 2026-04-16 21:10 | -11.17595 | -36.26131 | 25073 ft | 453 kts | 207° |
| 2026-04-16 21:10 | -11.20388 | -36.27620 | 24762 ft | 451 kts | 207° |
| 2026-04-16 21:10 | -11.23141 | -36.29068 | 24451 ft | 449 kts | 206° |
| 2026-04-16 21:10 | -11.25920 | -36.30511 | 24144 ft | 447 kts | 206° |
| 2026-04-16 21:11 | -11.28683 | -36.31954 | 23839 ft | 445 kts | 206° |
| 2026-04-16 21:11 | -11.31433 | -36.33402 | 23539 ft | 443 kts | 206° |
| 2026-04-16 21:11 | -11.34167 | -36.34839 | 23187 ft | 441 kts | 206° |
| 2026-04-16 21:11 | -11.36894 | -36.36266 | 22823 ft | 439 kts | 206° |
| 2026-04-16 21:12 | -11.39580 | -36.37673 | 22501 ft | 436 kts | 206° |
| 2026-04-16 21:12 | -11.42272 | -36.39086 | 22167 ft | 434 kts | 206° |
| 2026-04-16 21:12 | -11.44950 | -36.40493 | 21849 ft | 431 kts | 206° |
| 2026-04-16 21:12 | -11.47620 | -36.41894 | 21558 ft | 429 kts | 206° |
| 2026-04-16 21:13 | -11.50278 | -36.43289 | 21257 ft | 427 kts | 206° |
| 2026-04-16 21:13 | -11.52919 | -36.44676 | 20980 ft | 426 kts | 206° |
| 2026-04-16 21:13 | -11.55522 | -36.46044 | 20709 ft | 424 kts | 206° |
| 2026-04-16 21:13 | -11.58148 | -36.47423 | 20414 ft | 422 kts | 206° |
| 2026-04-16 21:14 | -11.60768 | -36.48799 | 20135 ft | 421 kts | 207° |
| 2026-04-16 21:14 | -11.63336 | -36.50149 | 19855 ft | 419 kts | 207° |
| 2026-04-16 21:14 | -11.65933 | -36.51514 | 19584 ft | 417 kts | 207° |
| 2026-04-16 21:14 | -11.68509 | -36.52869 | 19299 ft | 415 kts | 207° |
| 2026-04-16 21:15 | -11.70213 | -36.53765 | 19131 ft | 414 kts | 207° |
| 2026-04-16 21:15 | -11.72768 | -36.55109 | 18863 ft | 413 kts | 207° |
| 2026-04-16 21:15 | -11.76152 | -36.56889 | 18507 ft | 410 kts | 207° |
| 2026-04-16 21:15 | -11.77839 | -36.57777 | 18331 ft | 409 kts | 207° |
| 2026-04-16 21:16 | -11.80376 | -36.59112 | 18035 ft | 408 kts | 207° |
| 2026-04-16 21:16 | -11.82905 | -36.60443 | 17739 ft | 407 kts | 207° |
| 2026-04-16 21:16 | -11.85395 | -36.61754 | 17442 ft | 406 kts | 207° |
| 2026-04-16 21:16 | -11.87904 | -36.63076 | 17142 ft | 404 kts | 207° |
| 2026-04-16 21:17 | -11.90406 | -36.64394 | 16848 ft | 402 kts | 208° |
| 2026-04-16 21:17 | -11.92896 | -36.65706 | 16544 ft | 401 kts | 208° |
| 2026-04-16 21:17 | -11.95349 | -36.66998 | 16258 ft | 399 kts | 208° |
| 2026-04-16 21:17 | -11.97820 | -36.68300 | 15975 ft | 398 kts | 208° |
| 2026-04-16 21:18 | -12.00278 | -36.69596 | 15687 ft | 396 kts | 208° |
| 2026-04-16 21:18 | -12.02727 | -36.70888 | 15402 ft | 394 kts | 208° |
| 2026-04-16 21:18 | -12.05129 | -36.72154 | 15130 ft | 393 kts | 208° |
| 2026-04-16 21:18 | -12.07556 | -36.73434 | 14856 ft | 391 kts | 208° |
| 2026-04-16 21:19 | -12.09975 | -36.74711 | 14570 ft | 390 kts | 208° |
| 2026-04-16 21:19 | -12.12388 | -36.75985 | 14301 ft | 388 kts | 208° |
| 2026-04-16 21:19 | -12.14758 | -36.77236 | 14058 ft | 386 kts | 208° |
| 2026-04-16 21:19 | -12.17145 | -36.78496 | 13836 ft | 384 kts | 208° |
| 2026-04-16 21:20 | -12.19522 | -36.79751 | 13594 ft | 383 kts | 208° |
| 2026-04-16 21:20 | -12.21896 | -36.81005 | 13330 ft | 382 kts | 208° |
| 2026-04-16 21:20 | -12.24223 | -36.82235 | 13095 ft | 380 kts | 208° |
| 2026-04-16 21:20 | -12.26575 | -36.83477 | 12841 ft | 379 kts | 208° |
| 2026-04-16 21:21 | -12.28921 | -36.84717 | 12597 ft | 378 kts | 208° |
| 2026-04-16 21:21 | -12.31227 | -36.85999 | 12348 ft | 375 kts | 215° |
| 2026-04-16 21:21 | -12.33090 | -36.87788 | 12120 ft | 372 kts | 233° |
| 2026-04-16 21:21 | -12.34355 | -36.90072 | 11898 ft | 369 kts | 248° |
| 2026-04-16 21:22 | -12.35353 | -36.92498 | 11661 ft | 369 kts | 248° |
| 2026-04-16 21:22 | -12.36307 | -36.94931 | 11429 ft | 368 kts | 249° |
| 2026-04-16 21:22 | -12.37265 | -36.97362 | 11192 ft | 368 kts | 248° |
| 2026-04-16 21:22 | -12.38242 | -36.99789 | 10955 ft | 368 kts | 248° |
| 2026-04-16 21:23 | -12.39229 | -37.02203 | 10728 ft | 367 kts | 246° |
| 2026-04-16 21:23 | -12.40433 | -37.04480 | 10507 ft | 368 kts | 238° |
| 2026-04-16 21:23 | -12.41945 | -37.06589 | 10278 ft | 367 kts | 230° |
| 2026-04-16 21:23 | -12.43726 | -37.08461 | 10106 ft | 363 kts | 222° |
| 2026-04-16 21:24 | -12.45593 | -37.10080 | 10087 ft | 340 kts | 220° |
| 2026-04-16 21:24 | -12.47378 | -37.11553 | 10066 ft | 319 kts | 219° |
| 2026-04-16 21:24 | -12.49015 | -37.12980 | 10019 ft | 299 kts | 226° |
| 2026-04-16 21:24 | -12.50436 | -37.14442 | 9967 ft | 281 kts | 226° |
| 2026-04-16 21:25 | -12.51787 | -37.15823 | 9743 ft | 272 kts | 226° |
| 2026-04-16 21:25 | -12.53130 | -37.17197 | 9291 ft | 272 kts | 226° |
| 2026-04-16 21:25 | -12.54458 | -37.18558 | 8922 ft | 269 kts | 226° |
| 2026-04-16 21:25 | -12.55756 | -37.19890 | 8525 ft | 266 kts | 226° |
| 2026-04-16 21:26 | -12.57004 | -37.21275 | 8104 ft | 263 kts | 237° |
| 2026-04-16 21:26 | -12.57777 | -37.22960 | 7780 ft | 258 kts | 249° |
| 2026-04-16 21:26 | -12.58394 | -37.24689 | 7660 ft | 259 kts | 250° |
| 2026-04-16 21:26 | -12.58983 | -37.26438 | 7559 ft | 260 kts | 251° |
| 2026-04-16 21:27 | -12.59558 | -37.28173 | 7473 ft | 260 kts | 251° |
| 2026-04-16 21:27 | -12.60139 | -37.29932 | 7381 ft | 260 kts | 251° |
| 2026-04-16 21:27 | -12.60716 | -37.31687 | 7281 ft | 259 kts | 251° |
| 2026-04-16 21:27 | -12.61283 | -37.33415 | 7193 ft | 259 kts | 251° |
| 2026-04-16 21:28 | -12.61855 | -37.35163 | 7102 ft | 258 kts | 251° |
| 2026-04-16 21:28 | -12.62424 | -37.36910 | 7009 ft | 258 kts | 251° |
| 2026-04-16 21:28 | -12.62991 | -37.38659 | 6909 ft | 258 kts | 251° |
| 2026-04-16 21:28 | -12.63535 | -37.40344 | 6810 ft | 246 kts | 251° |
| 2026-04-16 21:29 | -12.64059 | -37.41977 | 6688 ft | 238 kts | 251° |
| 2026-04-16 21:29 | -12.64570 | -37.43573 | 6568 ft | 235 kts | 251° |
| 2026-04-16 21:29 | -12.65076 | -37.45162 | 6467 ft | 233 kts | 251° |
| 2026-04-16 21:29 | -12.65574 | -37.46741 | 6357 ft | 233 kts | 251° |
| 2026-04-16 21:30 | -12.66068 | -37.48321 | 6242 ft | 233 kts | 251° |
| 2026-04-16 21:30 | -12.66552 | -37.49882 | 6141 ft | 232 kts | 251° |
| 2026-04-16 21:30 | -12.67042 | -37.51456 | 6031 ft | 231 kts | 251° |
| 2026-04-16 21:30 | -12.67530 | -37.53027 | 5927 ft | 231 kts | 251° |
| 2026-04-16 21:31 | -12.68014 | -37.54595 | 5830 ft | 231 kts | 251° |
| 2026-04-16 21:31 | -12.68499 | -37.56167 | 5735 ft | 231 kts | 251° |
| 2026-04-16 21:31 | -12.68982 | -37.57734 | 5631 ft | 231 kts | 251° |
| 2026-04-16 21:31 | -12.69465 | -37.59304 | 5518 ft | 230 kts | 251° |
| 2026-04-16 21:32 | -12.69945 | -37.60873 | 5429 ft | 230 kts | 251° |
| 2026-04-16 21:32 | -12.70414 | -37.62420 | 5339 ft | 230 kts | 251° |
| 2026-04-16 21:32 | -12.70886 | -37.63982 | 5232 ft | 229 kts | 251° |
| 2026-04-16 21:32 | -12.71357 | -37.65545 | 5144 ft | 229 kts | 251° |
| 2026-04-16 21:33 | -12.71826 | -37.67103 | 5051 ft | 229 kts | 251° |
| 2026-04-16 21:33 | -12.72296 | -37.68667 | 4950 ft | 229 kts | 251° |
| 2026-04-16 21:33 | -12.72759 | -37.70210 | 4855 ft | 229 kts | 251° |
| 2026-04-16 21:33 | -12.73227 | -37.71770 | 4754 ft | 228 kts | 251° |
| 2026-04-16 21:34 | -12.73692 | -37.73331 | 4665 ft | 227 kts | 251° |
| 2026-04-16 21:34 | -12.74155 | -37.74889 | 4557 ft | 229 kts | 251° |
| 2026-04-16 21:34 | -12.74611 | -37.76428 | 4465 ft | 228 kts | 251° |
| 2026-04-16 21:34 | -12.75073 | -37.77987 | 4373 ft | 228 kts | 251° |
| 2026-04-16 21:35 | -12.75529 | -37.79533 | 4328 ft | 223 kts | 251° |
| 2026-04-16 21:35 | -12.75972 | -37.81034 | 4271 ft | 218 kts | 251° |
| 2026-04-16 21:35 | -12.76407 | -37.82502 | 4206 ft | 216 kts | 251° |
| 2026-04-16 21:35 | -12.76843 | -37.83978 | 4130 ft | 215 kts | 251° |
| 2026-04-16 21:36 | -12.77273 | -37.85445 | 4047 ft | 216 kts | 251° |
| 2026-04-16 21:36 | -12.77706 | -37.86917 | 3966 ft | 216 kts | 251° |
| 2026-04-16 21:36 | -12.78135 | -37.88375 | 3870 ft | 216 kts | 251° |
| 2026-04-16 21:36 | -12.78564 | -37.89855 | 3785 ft | 216 kts | 251° |
| 2026-04-16 21:37 | -12.78990 | -37.91331 | 3691 ft | 216 kts | 251° |
| 2026-04-16 21:37 | -12.79417 | -37.92808 | 3594 ft | 216 kts | 251° |
| 2026-04-16 21:37 | -12.79842 | -37.94283 | 3499 ft | 215 kts | 251° |
| 2026-04-16 21:37 | -12.80266 | -37.95761 | 3410 ft | 215 kts | 251° |
| 2026-04-16 21:38 | -12.80687 | -37.97231 | 3309 ft | 215 kts | 251° |
| 2026-04-16 21:38 | -12.81112 | -37.98707 | 3215 ft | 218 kts | 251° |
| 2026-04-16 21:38 | -12.81573 | -38.00278 | 3152 ft | 241 kts | 251° |
| 2026-04-16 21:38 | -12.82058 | -38.01917 | 3080 ft | 243 kts | 251° |
| 2026-04-16 21:39 | -12.82599 | -38.03568 | 3006 ft | 245 kts | 246° |
| 2026-04-16 21:39 | -12.83271 | -38.05183 | 2912 ft | 245 kts | 244° |
| 2026-04-16 21:39 | -12.83957 | -38.06767 | 2822 ft | 245 kts | 244° |
| 2026-04-16 21:39 | -12.84650 | -38.08365 | 2733 ft | 244 kts | 244° |
| 2026-04-16 21:40 | -12.85339 | -38.09958 | 2640 ft | 244 kts | 244° |
| 2026-04-16 21:40 | -12.86028 | -38.11560 | 2539 ft | 245 kts | 244° |
| 2026-04-16 21:40 | -12.86687 | -38.13100 | 2427 ft | 229 kts | 244° |
| 2026-04-16 21:40 | -12.87275 | -38.14560 | 2305 ft | 215 kts | 250° |
| 2026-04-16 21:41 | -12.87606 | -38.16009 | 2232 ft | 201 kts | 255° |
| 2026-04-16 21:41 | -12.87878 | -38.17358 | 2173 ft | 185 kts | 256° |
| 2026-04-16 21:41 | -12.88123 | -38.18590 | 2127 ft | 165 kts | 256° |
| 2026-04-16 21:41 | -12.88338 | -38.19688 | 1781 ft | 158 kts | 255° |
| 2026-04-16 21:42 | -12.88552 | -38.20759 | 1491 ft | 146 kts | 256° |
| 2026-04-16 21:42 | -12.88761 | -38.21808 | 1524 ft | 159 kts | 255° |
| 2026-04-16 21:42 | -12.88980 | -38.22906 | 1504 ft | 155 kts | 255° |
| 2026-04-16 21:42 | -12.89206 | -38.23993 | 1548 ft | 159 kts | 255° |
| 2026-04-16 21:43 | -12.89444 | -38.25109 | 1461 ft | 165 kts | 255° |
| 2026-04-16 21:43 | -12.89679 | -38.26238 | 1197 ft | 159 kts | 256° |
| 2026-04-16 21:43 | -12.89889 | -38.27344 | 959 ft | 159 kts | 255° |
| 2026-04-16 21:43 | -12.90090 | -38.28466 | 605 ft | 158 kts | 256° |
| 2026-04-16 21:44 | -12.90290 | -38.29548 | 374 ft | 153 kts | 255° |
| 2026-04-16 21:44 | -12.90511 | -38.30620 | 203 ft | 155 kts | 255° |
| 2026-04-16 21:44 | -12.90735 | -38.31661 | 67 ft | 134 kts | 258° |
| 2026-04-16 21:44 | -12.90893 | -38.32438 | 61 ft | 85 kts | 258° |
| 2026-04-16 21:45 | -12.90986 | -38.32896 | 49 ft | 42 kts | 258° |
| 2026-04-16 21:45 | -12.91044 | -38.33177 | 45 ft | 39 kts | 258° |
| 2026-04-16 21:45 | -12.91086 | -38.33384 | 45 ft | 20 kts | 254° |
| 2026-04-16 21:45 | -12.91161 | -38.33439 | 45 ft | 9 kts | 198° |
| 2026-04-16 21:46 | -12.91175 | -38.33451 | 45 ft | 1 kts | 242° |
| 2026-04-16 21:46 | -12.91178 | -38.33462 | 44 ft | 3 kts | 255° |
| 2026-04-16 21:46 | -12.91190 | -38.33505 | 44 ft | 9 kts | 254° |
| 2026-04-16 21:46 | -12.91173 | -38.33567 | 43 ft | 10 kts | 323° |
| 2026-04-16 21:47 | -12.91129 | -38.33566 | 43 ft | 4 kts | 28° |
| 2026-04-16 21:47 | -12.91121 | -38.33549 | 42 ft | 7 kts | 69° |
| 2026-04-16 21:47 | -12.91106 | -38.33478 | 44 ft | 8 kts | 89° |
| 2026-04-16 21:47 | -12.91118 | -38.33454 | 44 ft | 2 kts | 133° |
| 2026-04-16 21:48 | -12.91136 | -38.33448 | 44 ft | 6 kts | 163° |
| 2026-04-16 21:48 | -12.91172 | -38.33423 | 45 ft | 7 kts | 126° |
| 2026-04-16 21:48 | -12.91204 | -38.33362 | 47 ft | 12 kts | 111° |
| 2026-04-16 21:48 | -12.91240 | -38.33326 | 47 ft | 3 kts | 159° |
| 2026-04-16 21:49 | -12.91261 | -38.33326 | 47 ft | 5 kts | 180° |
| 2026-04-16 21:49 | -12.91305 | -38.33322 | 48 ft | 6 kts | 172° |
| 2026-04-16 21:49 | -12.91329 | -38.33319 | 48 ft | 0 kts | 171° |
| 2026-04-16 21:49 | -12.91330 | -38.33318 | 48 ft | 0 kts | 171° |
| 2026-04-16 21:50 | -12.91331 | -38.33318 | 48 ft | 0 kts | 171° |
| 2026-04-16 21:50 | -12.91333 | -38.33318 | 48 ft | 1 kts | 171° |
| 2026-04-16 21:50 | -12.91342 | -38.33316 | 46 ft | 0 kts | 171° |
| 2026-04-16 21:50 | -12.91342 | -38.33317 | 46 ft | 0 kts | 171° |